NOAA Web Site Link Tides and Currents Home Page Transparent placeholder image

PORTS® Data Listing: 8638614 Willoughby Degaussing Station, VA

CO-OPS RAW PORTS DATA

************************      PRELIMINARY DATA      ************************** 

     THIS RAW DATA HAS NOT BEEN SUBJECT TO THE NATIONAL OCEAN SERVICE'S        
     QUALITY CONTROL OR QUALITY ASSURANCE PROCEDURES AND DOES NOT MEET         
     THE CRITERIA AND STANDARDS OF OFFICIAL NATIONAL OCEAN SERVICE             
     DATA.  IT IS RELEASED FOR LIMITED PUBLIC USE AS PRELIMINARY DATA TO       
     BE USED ONLY WITH APPROPRIATE CAUTION.                                    

************************      PRELIMINARY DATA      ************************** 


       CD   -   Calendar date
       T    -   Time
       TZ   -   Timezone
       PW   -   Predicted water level (feet above MLLW)
       OW   -   Observed water level (feet above MLLW)
       WS   -   Wind speed (knots)
       WD   -   Wind direction (degrees true)
       WG   -   Wind gust (knots)
       AT   -   Air temperature (degrees farenheit)
       WT   -   Water temperature (degrees farenheit)
       AP   -   Air pressure (millibars)
       SA   -   Salinty (PSU - Practical Salinity Units)
       SG   -   Specific gravity
       RH   -   Relative humidity
       AG   -   Air gap (feet)
       VI   -   Visibility (nautical miles)

       ** NOTE **
       A variable that has its data fields filled with "9"s, indicates that
       data was not collected for that sample period.
       **********


STATION NAME: Willoughby Degaussing Station (8638614)
****************************************************************************************************
    CD       T    TZ    PW     OW    WS   WD   WG    AT    WT    AP    SA    SG     RH    AG   VI
****************************************************************************************************
2019/05/17 07:24 EDT  -99.99 -99.99   11  214   12  65.8 -99.9 1012.0 -9.9 -9.999 -99.9 -99.99 -9.99
2019/05/17 07:30 EDT  -99.99 -99.99    8  214   11  66.0 -99.9 1011.9 -9.9 -9.999 -99.9 -99.99 -9.99
2019/05/17 07:36 EDT  -99.99 -99.99    9  213   11  66.4 -99.9 1011.9 -9.9 -9.999 -99.9 -99.99 -9.99
2019/05/17 07:42 EDT  -99.99 -99.99    9  197   11  66.7 -99.9 1011.9 -9.9 -9.999 -99.9 -99.99 -9.99
2019/05/17 07:48 EDT  -99.99 -99.99   11  214   13  66.7 -99.9 1011.8 -9.9 -9.999 -99.9 -99.99 -9.99
2019/05/17 07:54 EDT  -99.99 -99.99   11  200   13  67.1 -99.9 1011.8 -9.9 -9.999 -99.9 -99.99 -9.99
2019/05/17 08:00 EDT  -99.99 -99.99   12  203   15  67.3 -99.9 1011.8 -9.9 -9.999 -99.9 -99.99 -9.99
2019/05/17 08:06 EDT  -99.99 -99.99   11  200   14  67.1 -99.9 1011.7 -9.9 -9.999 -99.9 -99.99 -9.99
2019/05/17 08:12 EDT  -99.99 -99.99   14  209   16  67.5 -99.9 1011.6 -9.9 -9.999 -99.9 -99.99 -9.99
2019/05/17 08:18 EDT  -99.99 -99.99   13  203   16  67.5 -99.9 1011.6 -9.9 -9.999 -99.9 -99.99 -9.99
2019/05/17 08:24 EDT  -99.99 -99.99   12  211   15  67.6 -99.9 1011.5 -9.9 -9.999 -99.9 -99.99 -9.99
2019/05/17 08:30 EDT  -99.99 -99.99   16  215   17  67.6 -99.9 1011.5 -9.9 -9.999 -99.9 -99.99 -9.99
2019/05/17 08:36 EDT  -99.99 -99.99   14  218   17  67.8 -99.9 1011.6 -9.9 -9.999 -99.9 -99.99 -9.99
2019/05/17 08:42 EDT  -99.99 -99.99   13  219   16  67.6 -99.9 1011.7 -9.9 -9.999 -99.9 -99.99 -9.99
2019/05/17 08:48 EDT  -99.99 -99.99   13  221   16  67.8 -99.9 1011.7 -9.9 -9.999 -99.9 -99.99 -9.99
2019/05/17 08:54 EDT  -99.99 -99.99   13  219   15  68.2 -99.9 1011.8 -9.9 -9.999 -99.9 -99.99 -9.99
2019/05/17 09:00 EDT  -99.99 -99.99   12  221   14  68.5 -99.9 1011.9 -9.9 -9.999 -99.9 -99.99 -9.99
2019/05/17 09:06 EDT  -99.99 -99.99   13  225   14  68.5 -99.9 1012.0 -9.9 -9.999 -99.9 -99.99 -9.99
2019/05/17 09:12 EDT  -99.99 -99.99   11  224   13  68.7 -99.9 1012.1 -9.9 -9.999 -99.9 -99.99 -9.99
2019/05/17 09:18 EDT  -99.99 -99.99   11  227   13  68.7 -99.9 1012.2 -9.9 -9.999 -99.9 -99.99 -9.99
2019/05/17 09:24 EDT  -99.99 -99.99   10  230   12  68.9 -99.9 1012.3 -9.9 -9.999 -99.9 -99.99 -9.99
2019/05/17 09:30 EDT  -99.99 -99.99   10  229   11  69.3 -99.9 1012.2 -9.9 -9.999 -99.9 -99.99 -9.99
2019/05/17 09:36 EDT  -99.99 -99.99   10  228   11  69.4 -99.9 1012.2 -9.9 -9.999 -99.9 -99.99 -9.99
2019/05/17 09:42 EDT  -99.99 -99.99    8  237   11  69.1 -99.9 1012.1 -9.9 -9.999 -99.9 -99.99 -9.99
2019/05/17 09:48 EDT  -99.99 -99.99    9  234   10  69.3 -99.9 1012.1 -9.9 -9.999 -99.9 -99.99 -9.99
2019/05/17 09:54 EDT  -99.99 -99.99   10  235   11  69.4 -99.9 1012.0 -9.9 -9.999 -99.9 -99.99 -9.99
2019/05/17 10:00 EDT  -99.99 -99.99   11  229   13  69.8 -99.9 1011.9 -9.9 -9.999 -99.9 -99.99 -9.99
2019/05/17 10:06 EDT  -99.99 -99.99   11  226   13  70.5 -99.9 1011.8 -9.9 -9.999 -99.9 -99.99 -9.99
2019/05/17 10:12 EDT  -99.99 -99.99   11  228   12  70.7 -99.9 1011.8 -9.9 -9.999 -99.9 -99.99 -9.99
2019/05/17 10:18 EDT  -99.99 -99.99   12  226   13  71.1 -99.9 1011.8 -9.9 -9.999 -99.9 -99.99 -9.99
2019/05/17 10:24 EDT  -99.99 -99.99   12  230   13  70.9 -99.9 1011.7 -9.9 -9.999 -99.9 -99.99 -9.99
2019/05/17 10:30 EDT  -99.99 -99.99   12  232   13  71.4 -99.9 1011.7 -9.9 -9.999 -99.9 -99.99 -9.99
2019/05/17 10:36 EDT  -99.99 -99.99   12  233   13  72.0 -99.9 1011.6 -9.9 -9.999 -99.9 -99.99 -9.99
2019/05/17 10:42 EDT  -99.99 -99.99   11  235   13  72.0 -99.9 1011.5 -9.9 -9.999 -99.9 -99.99 -9.99
2019/05/17 10:48 EDT  -99.99 -99.99   10  238   11  72.0 -99.9 1011.6 -9.9 -9.999 -99.9 -99.99 -9.99
2019/05/17 10:54 EDT  -99.99 -99.99   14  228   16  73.2 -99.9 1011.5 -9.9 -9.999 -99.9 -99.99 -9.99
2019/05/17 11:00 EDT  -99.99 -99.99   17  223   19  73.8 -99.9 1011.4 -9.9 -9.999 -99.9 -99.99 -9.99
2019/05/17 11:06 EDT  -99.99 -99.99   15  221   18  74.1 -99.9 1011.3 -9.9 -9.999 -99.9 -99.99 -9.99
2019/05/17 11:12 EDT  -99.99 -99.99   14  223   17  73.8 -99.9 1011.2 -9.9 -9.999 -99.9 -99.99 -9.99
2019/05/17 11:18 EDT  -99.99 -99.99   12  219   16  73.9 -99.9 1011.2 -9.9 -9.999 -99.9 -99.99 -9.99
2019/05/17 11:24 EDT  -99.99 -99.99   14  217   17  75.0 -99.9 1011.0 -9.9 -9.999 -99.9 -99.99 -9.99
2019/05/17 11:30 EDT  -99.99 -99.99   14  218   18  75.0 -99.9 1011.0 -9.9 -9.999 -99.9 -99.99 -9.99
2019/05/17 11:36 EDT  -99.99 -99.99   15  220   17  75.6 -99.9 1011.0 -9.9 -9.999 -99.9 -99.99 -9.99
2019/05/17 11:42 EDT  -99.99 -99.99   16  224   19  75.6 -99.9 1011.0 -9.9 -9.999 -99.9 -99.99 -9.99
2019/05/17 11:48 EDT  -99.99 -99.99   14  231   16  74.5 -99.9 1011.1 -9.9 -9.999 -99.9 -99.99 -9.99
2019/05/17 11:54 EDT  -99.99 -99.99   15  226   17  75.2 -99.9 1011.0 -9.9 -9.999 -99.9 -99.99 -9.99
2019/05/17 12:00 EDT  -99.99 -99.99   16  226   18  76.3 -99.9 1010.8 -9.9 -9.999 -99.9 -99.99 -9.99
2019/05/17 12:06 EDT  -99.99 -99.99   14  230   16  75.4 -99.9 1010.8 -9.9 -9.999 -99.9 -99.99 -9.99
2019/05/17 12:12 EDT  -99.99 -99.99   15  227   17  75.2 -99.9 1010.7 -9.9 -9.999 -99.9 -99.99 -9.99
2019/05/17 12:18 EDT  -99.99 -99.99   14  235   17  74.7 -99.9 1010.7 -9.9 -9.999 -99.9 -99.99 -9.99
2019/05/17 12:24 EDT  -99.99 -99.99   19  231   20  75.7 -99.9 1010.4 -9.9 -9.999 -99.9 -99.99 -9.99
2019/05/17 12:30 EDT  -99.99 -99.99   18  228   19  75.7 -99.9 1010.4 -9.9 -9.999 -99.9 -99.99 -9.99
2019/05/17 12:36 EDT  -99.99 -99.99   16  235   20  75.2 -99.9 1010.3 -9.9 -9.999 -99.9 -99.99 -9.99
2019/05/17 12:42 EDT  -99.99 -99.99   15  234   17  75.4 -99.9 1010.2 -9.9 -9.999 -99.9 -99.99 -9.99
2019/05/17 12:48 EDT  -99.99 -99.99   14  227   16  75.0 -99.9 1010.0 -9.9 -9.999 -99.9 -99.99 -9.99
2019/05/17 12:54 EDT  -99.99 -99.99   16  227   18  75.2 -99.9 1009.9 -9.9 -9.999 -99.9 -99.99 -9.99
2019/05/17 13:00 EDT  -99.99 -99.99   14  228   16  75.4 -99.9 1009.9 -9.9 -9.999 -99.9 -99.99 -9.99
2019/05/17 13:06 EDT  -99.99 -99.99   15  231   16  75.7 -99.9 1009.8 -9.9 -9.999 -99.9 -99.99 -9.99
2019/05/17 13:12 EDT  -99.99 -99.99   14  220   16  76.3 -99.9 1009.7 -9.9 -9.999 -99.9 -99.99 -9.99
2019/05/17 13:18 EDT  -99.99 -99.99   16  218   18  77.5 -99.9 1009.4 -9.9 -9.999 -99.9 -99.99 -9.99
2019/05/17 13:24 EDT  -99.99 -99.99   13  218   16  77.4 -99.9 1009.4 -9.9 -9.999 -99.9 -99.99 -9.99
2019/05/17 13:30 EDT  -99.99 -99.99   16  217   18  77.9 -99.9 1009.2 -9.9 -9.999 -99.9 -99.99 -9.99
2019/05/17 13:36 EDT  -99.99 -99.99   17  214   19  78.6 -99.9 1008.9 -9.9 -9.999 -99.9 -99.99 -9.99
2019/05/17 13:42 EDT  -99.99 -99.99   17  213   19  79.0 -99.9 1008.9 -9.9 -9.999 -99.9 -99.99 -9.99
2019/05/17 13:48 EDT  -99.99 -99.99   14  222   19  77.7 -99.9 1008.9 -9.9 -9.999 -99.9 -99.99 -9.99
2019/05/17 13:54 EDT  -99.99 -99.99   17  220   19  79.5 -99.9 1008.8 -9.9 -9.999 -99.9 -99.99 -9.99
2019/05/17 14:00 EDT  -99.99 -99.99   15  229   18  77.9 -99.9 1008.8 -9.9 -9.999 -99.9 -99.99 -9.99
2019/05/17 14:06 EDT  -99.99 -99.99   18  223   21  79.3 -99.9 1008.8 -9.9 -9.999 -99.9 -99.99 -9.99
2019/05/17 14:12 EDT  -99.99 -99.99   16  226   20  78.1 -99.9 1008.9 -9.9 -9.999 -99.9 -99.99 -9.99
2019/05/17 14:18 EDT  -99.99 -99.99   14  237   20  78.8 -99.9 1008.8 -9.9 -9.999 -99.9 -99.99 -9.99
2019/05/17 14:24 EDT  -99.99 -99.99   12  235   17  78.1 -99.9 1008.7 -9.9 -9.999 -99.9 -99.99 -9.99
2019/05/17 14:30 EDT  -99.99 -99.99   13  239   15  78.1 -99.9 1008.6 -9.9 -9.999 -99.9 -99.99 -9.99
2019/05/17 14:36 EDT  -99.99 -99.99   12  242   14  77.4 -99.9 1008.6 -9.9 -9.999 -99.9 -99.99 -9.99
2019/05/17 14:42 EDT  -99.99 -99.99   14  240   16  77.9 -99.9 1008.6 -9.9 -9.999 -99.9 -99.99 -9.99
2019/05/17 14:48 EDT  -99.99 -99.99   12  242   15  77.0 -99.9 1008.5 -9.9 -9.999 -99.9 -99.99 -9.99
2019/05/17 14:54 EDT  -99.99 -99.99   16  230   18  77.9 -99.9 1008.5 -9.9 -9.999 -99.9 -99.99 -9.99
2019/05/17 15:00 EDT  -99.99 -99.99   18  233   23  79.2 -99.9 1008.4 -9.9 -9.999 -99.9 -99.99 -9.99
2019/05/17 15:06 EDT  -99.99 -99.99   16  236   18  78.6 -99.9 1008.3 -9.9 -9.999 -99.9 -99.99 -9.99
2019/05/17 15:12 EDT  -99.99 -99.99   16  237   17  79.0 -99.9 1008.4 -9.9 -9.999 -99.9 -99.99 -9.99
2019/05/17 15:18 EDT  -99.99 -99.99   14  235   17  78.4 -99.9 1008.4 -9.9 -9.999 -99.9 -99.99 -9.99
2019/05/17 15:24 EDT  -99.99 -99.99   15  236   16  79.3 -99.9 1008.3 -9.9 -9.999 -99.9 -99.99 -9.99
2019/05/17 15:30 EDT  -99.99 -99.99   14  236   17  78.3 -99.9 1008.3 -9.9 -9.999 -99.9 -99.99 -9.99
2019/05/17 15:36 EDT  -99.99 -99.99   11  240   15  77.2 -99.9 1008.3 -9.9 -9.999 -99.9 -99.99 -9.99
2019/05/17 15:42 EDT  -99.99 -99.99   13  238   14  78.3 -99.9 1008.0 -9.9 -9.999 -99.9 -99.99 -9.99
2019/05/17 15:48 EDT  -99.99 -99.99   15  234   16  79.3 -99.9 1007.9 -9.9 -9.999 -99.9 -99.99 -9.99
2019/05/17 15:54 EDT  -99.99 -99.99   12  238   15  77.7 -99.9 1008.0 -9.9 -9.999 -99.9 -99.99 -9.99
2019/05/17 16:00 EDT  -99.99 -99.99   13  239   15  78.6 -99.9 1007.8 -9.9 -9.999 -99.9 -99.99 -9.99
2019/05/17 16:06 EDT  -99.99 -99.99   14  234   15  78.4 -99.9 1007.8 -9.9 -9.999 -99.9 -99.99 -9.99
2019/05/17 16:12 EDT  -99.99 -99.99   13  243   16  78.1 -99.9 1007.8 -9.9 -9.999 -99.9 -99.99 -9.99
2019/05/17 16:18 EDT  -99.99 -99.99   13  237   15  78.4 -99.9 1007.7 -9.9 -9.999 -99.9 -99.99 -9.99
2019/05/17 16:24 EDT  -99.99 -99.99   12  239   15  78.6 -99.9 1007.8 -9.9 -9.999 -99.9 -99.99 -9.99
2019/05/17 16:30 EDT  -99.99 -99.99   11  256   16  77.5 -99.9 1007.8 -9.9 -9.999 -99.9 -99.99 -9.99
2019/05/17 16:36 EDT  -99.99 -99.99   13  249   15  77.7 -99.9 1007.7 -9.9 -9.999 -99.9 -99.99 -9.99
2019/05/17 16:42 EDT  -99.99 -99.99   15  253   17  79.7 -99.9 1007.6 -9.9 -9.999 -99.9 -99.99 -9.99
2019/05/17 16:48 EDT  -99.99 -99.99   15  253   17  80.2 -99.9 1007.7 -9.9 -9.999 -99.9 -99.99 -9.99
2019/05/17 16:54 EDT  -99.99 -99.99   14  252   17  79.3 -99.9 1007.7 -9.9 -9.999 -99.9 -99.99 -9.99
2019/05/17 17:00 EDT  -99.99 -99.99   16  254   20  79.7 -99.9 1007.6 -9.9 -9.999 -99.9 -99.99 -9.99
2019/05/17 17:06 EDT  -99.99 -99.99   17  259   21  80.2 -99.9 1007.7 -9.9 -9.999 -99.9 -99.99 -9.99
2019/05/17 17:12 EDT  -99.99 -99.99   14  257   17  78.8 -99.9 1007.8 -9.9 -9.999 -99.9 -99.99 -9.99
2019/05/17 17:18 EDT  -99.99 -99.99   14  263   15  78.8 -99.9 1007.9 -9.9 -9.999 -99.9 -99.99 -9.99
2019/05/17 17:24 EDT  -99.99 -99.99   12  263   14  79.2 -99.9 1008.0 -9.9 -9.999 -99.9 -99.99 -9.99
2019/05/17 17:30 EDT  -99.99 -99.99   11  262   14  79.5 -99.9 1008.0 -9.9 -9.999 -99.9 -99.99 -9.99
2019/05/17 17:36 EDT  -99.99 -99.99   12  270   14  80.6 -99.9 1008.1 -9.9 -9.999 -99.9 -99.99 -9.99
2019/05/17 17:42 EDT  -99.99 -99.99   12  274   13  80.1 -99.9 1008.2 -9.9 -9.999 -99.9 -99.99 -9.99
2019/05/17 17:48 EDT  -99.99 -99.99   13  278   14  82.0 -99.9 1008.2 -9.9 -9.999 -99.9 -99.99 -9.99
2019/05/17 17:54 EDT  -99.99 -99.99   14  273   16  81.1 -99.9 1008.1 -9.9 -9.999 -99.9 -99.99 -9.99
2019/05/17 18:00 EDT  -99.99 -99.99   13  270   17  80.1 -99.9 1008.1 -9.9 -9.999 -99.9 -99.99 -9.99
2019/05/17 18:06 EDT  -99.99 -99.99   12  271   15  81.1 -99.9 1008.1 -9.9 -9.999 -99.9 -99.99 -9.99
2019/05/17 18:12 EDT  -99.99 -99.99   12  282   14  79.3 -99.9 1008.2 -9.9 -9.999 -99.9 -99.99 -9.99
2019/05/17 18:18 EDT  -99.99 -99.99   14  281   16  81.0 -99.9 1008.2 -9.9 -9.999 -99.9 -99.99 -9.99
2019/05/17 18:24 EDT  -99.99 -99.99   16  285   18  81.0 -99.9 1008.3 -9.9 -9.999 -99.9 -99.99 -9.99
2019/05/17 18:30 EDT  -99.99 -99.99   17  287   19  81.5 -99.9 1008.3 -9.9 -9.999 -99.9 -99.99 -9.99
2019/05/17 18:36 EDT  -99.99 -99.99   16  286   18  81.1 -99.9 1008.4 -9.9 -9.999 -99.9 -99.99 -9.99
2019/05/17 18:42 EDT  -99.99 -99.99   14  288   18  81.7 -99.9 1008.4 -9.9 -9.999 -99.9 -99.99 -9.99
2019/05/17 18:48 EDT  -99.99 -99.99   13  292   16  81.3 -99.9 1008.5 -9.9 -9.999 -99.9 -99.99 -9.99
2019/05/17 18:54 EDT  -99.99 -99.99   14  300   16  81.5 -99.9 1008.7 -9.9 -9.999 -99.9 -99.99 -9.99
2019/05/17 19:00 EDT  -99.99 -99.99   14  308   17  81.9 -99.9 1008.7 -9.9 -9.999 -99.9 -99.99 -9.99
2019/05/17 19:06 EDT  -99.99 -99.99   11  308   14  80.4 -99.9 1008.9 -9.9 -9.999 -99.9 -99.99 -9.99
2019/05/17 19:12 EDT  -99.99 -99.99   12  313   14  81.1 -99.9 1009.0 -9.9 -9.999 -99.9 -99.99 -9.99
2019/05/17 19:18 EDT  -99.99 -99.99   13  320   15  80.8 -99.9 1009.1 -9.9 -9.999 -99.9 -99.99 -9.99
2019/05/17 19:24 EDT  -99.99 -99.99   13  313   17  81.3 -99.9 1009.2 -9.9 -9.999 -99.9 -99.99 -9.99
2019/05/17 19:30 EDT  -99.99 -99.99   10  314   14  81.1 -99.9 1009.2 -9.9 -9.999 -99.9 -99.99 -9.99
2019/05/17 19:36 EDT  -99.99 -99.99   10  310   12  80.4 -99.9 1009.3 -9.9 -9.999 -99.9 -99.99 -9.99
2019/05/17 19:42 EDT  -99.99 -99.99   10  307   12  80.8 -99.9 1009.4 -9.9 -9.999 -99.9 -99.99 -9.99
2019/05/17 19:48 EDT  -99.99 -99.99    9  310   11  81.1 -99.9 1009.4 -9.9 -9.999 -99.9 -99.99 -9.99
2019/05/17 19:54 EDT  -99.99 -99.99    8  309   11  80.4 -99.9 1009.5 -9.9 -9.999 -99.9 -99.99 -9.99
2019/05/17 20:00 EDT  -99.99 -99.99    8  314   10  80.4 -99.9 1009.6 -9.9 -9.999 -99.9 -99.99 -9.99
2019/05/17 20:06 EDT  -99.99 -99.99    6  316    8  80.8 -99.9 1009.8 -9.9 -9.999 -99.9 -99.99 -9.99
2019/05/17 20:12 EDT  -99.99 -99.99    6  319    9  81.1 -99.9 1009.9 -9.9 -9.999 -99.9 -99.99 -9.99
2019/05/17 20:18 EDT  -99.99 -99.99    6  314    7  80.8 -99.9 1010.0 -9.9 -9.999 -99.9 -99.99 -9.99
2019/05/17 20:24 EDT  -99.99 -99.99    6  315    7  80.8 -99.9 1010.0 -9.9 -9.999 -99.9 -99.99 -9.99
2019/05/17 20:30 EDT  -99.99 -99.99    5  314    6  80.2 -99.9 1010.0 -9.9 -9.999 -99.9 -99.99 -9.99
2019/05/17 20:36 EDT  -99.99 -99.99    3  305    4  79.5 -99.9 1010.0 -9.9 -9.999 -99.9 -99.99 -9.99
2019/05/17 20:42 EDT  -99.99 -99.99    2  304    3  79.7 -99.9 1010.0 -9.9 -9.999 -99.9 -99.99 -9.99
2019/05/17 20:48 EDT  -99.99 -99.99    3  311    3  79.7 -99.9 1010.0 -9.9 -9.999 -99.9 -99.99 -9.99
2019/05/17 20:54 EDT  -99.99 -99.99    2  310    3  79.5 -99.9 1010.1 -9.9 -9.999 -99.9 -99.99 -9.99
2019/05/17 21:00 EDT  -99.99 -99.99    2  258    2  79.2 -99.9 1010.2 -9.9 -9.999 -99.9 -99.99 -9.99
2019/05/17 21:06 EDT  -99.99 -99.99    2  237    2  79.0 -99.9 1010.2 -9.9 -9.999 -99.9 -99.99 -9.99
2019/05/17 21:12 EDT  -99.99 -99.99    2  263    2  78.6 -99.9 1010.3 -9.9 -9.999 -99.9 -99.99 -9.99
2019/05/17 21:18 EDT  -99.99 -99.99    3  250    4  77.7 -99.9 1010.4 -9.9 -9.999 -99.9 -99.99 -9.99
2019/05/17 21:24 EDT  -99.99 -99.99    3  241    5  77.5 -99.9 1010.5 -9.9 -9.999 -99.9 -99.99 -9.99
2019/05/17 21:30 EDT  -99.99 -99.99    5  230    6  76.1 -99.9 1010.5 -9.9 -9.999 -99.9 -99.99 -9.99
2019/05/17 21:36 EDT  -99.99 -99.99    4  241    6  76.1 -99.9 1010.5 -9.9 -9.999 -99.9 -99.99 -9.99
2019/05/17 21:42 EDT  -99.99 -99.99    4  247    5  77.2 -99.9 1010.5 -9.9 -9.999 -99.9 -99.99 -9.99
2019/05/17 21:48 EDT  -99.99 -99.99    4  253    5  77.4 -99.9 1010.7 -9.9 -9.999 -99.9 -99.99 -9.99
2019/05/17 21:54 EDT  -99.99 -99.99    4  254    4  77.9 -99.9 1010.7 -9.9 -9.999 -99.9 -99.99 -9.99
2019/05/17 22:00 EDT  -99.99 -99.99    4  259    4  76.1 -99.9 1010.7 -9.9 -9.999 -99.9 -99.99 -9.99
2019/05/17 22:06 EDT  -99.99 -99.99    2  262    4  77.0 -99.9 1010.6 -9.9 -9.999 -99.9 -99.99 -9.99
2019/05/17 22:12 EDT  -99.99 -99.99    1  262    2  77.2 -99.9 1010.7 -9.9 -9.999 -99.9 -99.99 -9.99
2019/05/17 22:18 EDT  -99.99 -99.99    2  321    2  77.5 -99.9 1010.8 -9.9 -9.999 -99.9 -99.99 -9.99
2019/05/17 22:24 EDT  -99.99 -99.99    2  344    3  78.1 -99.9 1010.8 -9.9 -9.999 -99.9 -99.99 -9.99
2019/05/17 22:30 EDT  -99.99 -99.99    2    2    3  77.7 -99.9 1010.8 -9.9 -9.999 -99.9 -99.99 -9.99
2019/05/17 22:36 EDT  -99.99 -99.99    2   11    2  77.7 -99.9 1010.9 -9.9 -9.999 -99.9 -99.99 -9.99
2019/05/17 22:42 EDT  -99.99 -99.99    1    8    1  77.7 -99.9 1010.9 -9.9 -9.999 -99.9 -99.99 -9.99
2019/05/17 22:48 EDT  -99.99 -99.99    0    8    1  75.9 -99.9 1010.9 -9.9 -9.999 -99.9 -99.99 -9.99
2019/05/17 22:54 EDT  -99.99 -99.99    2  165    2  75.0 -99.9 1011.0 -9.9 -9.999 -99.9 -99.99 -9.99
2019/05/17 23:00 EDT  -99.99 -99.99    1  194    2  75.0 -99.9 1011.1 -9.9 -9.999 -99.9 -99.99 -9.99
2019/05/17 23:06 EDT  -99.99 -99.99    6  209    7  74.8 -99.9 1010.9 -9.9 -9.999 -99.9 -99.99 -9.99
2019/05/17 23:12 EDT  -99.99 -99.99    5  209    6  75.0 -99.9 1010.9 -9.9 -9.999 -99.9 -99.99 -9.99
2019/05/17 23:18 EDT  -99.99 -99.99    4  206    6  75.6 -99.9 1011.0 -9.9 -9.999 -99.9 -99.99 -9.99
2019/05/17 23:24 EDT  -99.99 -99.99    4  218    4  75.6 -99.9 1011.1 -9.9 -9.999 -99.9 -99.99 -9.99
2019/05/17 23:30 EDT  -99.99 -99.99    5  217    5  75.9 -99.9 1011.1 -9.9 -9.999 -99.9 -99.99 -9.99
2019/05/17 23:36 EDT  -99.99 -99.99    4  207    5  76.5 -99.9 1011.1 -9.9 -9.999 -99.9 -99.99 -9.99
2019/05/17 23:42 EDT  -99.99 -99.99    3  190    4  76.3 -99.9 1011.1 -9.9 -9.999 -99.9 -99.99 -9.99
2019/05/17 23:48 EDT  -99.99 -99.99    2  179    3  75.9 -99.9 1011.1 -9.9 -9.999 -99.9 -99.99 -9.99
2019/05/17 23:54 EDT  -99.99 -99.99    3  174    3  75.6 -99.9 1011.0 -9.9 -9.999 -99.9 -99.99 -9.99
2019/05/18 00:00 EDT  -99.99 -99.99    2  168    3  75.4 -99.9 1011.1 -9.9 -9.999 -99.9 -99.99 -9.99
2019/05/18 00:06 EDT  -99.99 -99.99    4  156    4  75.0 -99.9 1011.0 -9.9 -9.999 -99.9 -99.99 -9.99
2019/05/18 00:12 EDT  -99.99 -99.99    4  158    5  75.2 -99.9 1011.0 -9.9 -9.999 -99.9 -99.99 -9.99
2019/05/18 00:18 EDT  -99.99 -99.99    5  167    5  74.8 -99.9 1011.2 -9.9 -9.999 -99.9 -99.99 -9.99
2019/05/18 00:24 EDT  -99.99 -99.99   28  287   39  72.3 -99.9 1012.5 -9.9 -9.999 -99.9 -99.99 -9.99
2019/05/18 00:30 EDT  -99.99 -99.99   30  292   34  70.2 -99.9 1012.7 -9.9 -9.999 -99.9 -99.99 -9.99
2019/05/18 00:36 EDT  -99.99 -99.99   24  293   32  69.1 -99.9 1012.7 -9.9 -9.999 -99.9 -99.99 -9.99
2019/05/18 00:42 EDT  -99.99 -99.99   21  274   27  68.7 -99.9 1012.4 -9.9 -9.999 -99.9 -99.99 -9.99
2019/05/18 00:48 EDT  -99.99 -99.99   22  259   26  69.3 -99.9 1011.9 -9.9 -9.999 -99.9 -99.99 -9.99
2019/05/18 00:54 EDT  -99.99 -99.99   14  241   20  68.4 -99.9 1011.7 -9.9 -9.999 -99.9 -99.99 -9.99
2019/05/18 01:00 EDT  -99.99 -99.99   15  244   17  68.4 -99.9 1011.4 -9.9 -9.999 -99.9 -99.99 -9.99
2019/05/18 01:06 EDT  -99.99 -99.99   15  253   17  68.9 -99.9 1011.3 -9.9 -9.999 -99.9 -99.99 -9.99
2019/05/18 01:12 EDT  -99.99 -99.99   11  255   15  69.1 -99.9 1011.3 -9.9 -9.999 -99.9 -99.99 -9.99
2019/05/18 01:18 EDT  -99.99 -99.99   16  292   17  68.9 -99.9 1011.6 -9.9 -9.999 -99.9 -99.99 -9.99
2019/05/18 01:24 EDT  -99.99 -99.99   12  288   17  68.9 -99.9 1011.4 -9.9 -9.999 -99.9 -99.99 -9.99
2019/05/18 01:30 EDT  -99.99 -99.99    6  299   13  69.1 -99.9 1011.3 -9.9 -9.999 -99.9 -99.99 -9.99
2019/05/18 01:36 EDT  -99.99 -99.99    3  344    6  68.9 -99.9 1011.1 -9.9 -9.999 -99.9 -99.99 -9.99
2019/05/18 01:42 EDT  -99.99 -99.99    1  161    3  68.7 -99.9 1011.1 -9.9 -9.999 -99.9 -99.99 -9.99
2019/05/18 01:48 EDT  -99.99 -99.99    4  238    4  68.7 -99.9 1011.3 -9.9 -9.999 -99.9 -99.99 -9.99
2019/05/18 01:54 EDT  -99.99 -99.99    3  255   12  68.9 -99.9 1011.1 -9.9 -9.999 -99.9 -99.99 -9.99
2019/05/18 02:00 EDT  -99.99 -99.99    5  237   12  68.5 -99.9 1011.1 -9.9 -9.999 -99.9 -99.99 -9.99
2019/05/18 02:06 EDT  -99.99 -99.99   13  263   16  68.4 -99.9 1011.4 -9.9 -9.999 -99.9 -99.99 -9.99
2019/05/18 02:12 EDT  -99.99 -99.99    7  254   11  68.4 -99.9 1011.4 -9.9 -9.999 -99.9 -99.99 -9.99
2019/05/18 02:18 EDT  -99.99 -99.99    3  253    6  68.2 -99.9 1011.2 -9.9 -9.999 -99.9 -99.99 -9.99
2019/05/18 02:24 EDT  -99.99 -99.99    2  225    4  68.2 -99.9 1011.1 -9.9 -9.999 -99.9 -99.99 -9.99
2019/05/18 02:30 EDT  -99.99 -99.99    6  129    7  68.2 -99.9 1010.7 -9.9 -9.999 -99.9 -99.99 -9.99
2019/05/18 02:36 EDT  -99.99 -99.99    5  140    7  68.4 -99.9 1010.8 -9.9 -9.999 -99.9 -99.99 -9.99
2019/05/18 02:42 EDT  -99.99 -99.99    6  148    6  68.5 -99.9 1010.7 -9.9 -9.999 -99.9 -99.99 -9.99
2019/05/18 02:48 EDT  -99.99 -99.99    5  160    6  68.2 -99.9 1010.7 -9.9 -9.999 -99.9 -99.99 -9.99
2019/05/18 02:54 EDT  -99.99 -99.99    6  156    6  68.4 -99.9 1010.6 -9.9 -9.999 -99.9 -99.99 -9.99
2019/05/18 03:00 EDT  -99.99 -99.99    5  161    6  68.4 -99.9 1010.7 -9.9 -9.999 -99.9 -99.99 -9.99
2019/05/18 03:06 EDT  -99.99 -99.99    6  192    7  67.8 -99.9 1010.8 -9.9 -9.999 -99.9 -99.99 -9.99
2019/05/18 03:12 EDT  -99.99 -99.99    7  201    7  68.2 -99.9 1010.9 -9.9 -9.999 -99.9 -99.99 -9.99
2019/05/18 03:18 EDT  -99.99 -99.99    7  197    8  68.2 -99.9 1011.0 -9.9 -9.999 -99.9 -99.99 -9.99
2019/05/18 03:24 EDT  -99.99 -99.99    6  205    8  68.7 -99.9 1011.0 -9.9 -9.999 -99.9 -99.99 -9.99
2019/05/18 03:30 EDT  -99.99 -99.99    6  223    9  68.5 -99.9 1011.0 -9.9 -9.999 -99.9 -99.99 -9.99
2019/05/18 03:36 EDT  -99.99 -99.99    9  222   11  67.8 -99.9 1011.0 -9.9 -9.999 -99.9 -99.99 -9.99
2019/05/18 03:42 EDT  -99.99 -99.99    9  213   10  67.6 -99.9 1011.0 -9.9 -9.999 -99.9 -99.99 -9.99
2019/05/18 03:48 EDT  -99.99 -99.99    9  219   10  67.8 -99.9 1011.1 -9.9 -9.999 -99.9 -99.99 -9.99
2019/05/18 03:54 EDT  -99.99 -99.99   11  214   12  67.6 -99.9 1011.2 -9.9 -9.999 -99.9 -99.99 -9.99
2019/05/18 04:00 EDT  -99.99 -99.99    8  199   11  67.6 -99.9 1011.3 -9.9 -9.999 -99.9 -99.99 -9.99
2019/05/18 04:06 EDT  -99.99 -99.99    8  200   10  67.6 -99.9 1011.3 -9.9 -9.999 -99.9 -99.99 -9.99
2019/05/18 04:12 EDT  -99.99 -99.99    6  207    8  67.5 -99.9 1011.3 -9.9 -9.999 -99.9 -99.99 -9.99
2019/05/18 04:18 EDT  -99.99 -99.99    7  206    7  67.6 -99.9 1011.3 -9.9 -9.999 -99.9 -99.99 -9.99
2019/05/18 04:24 EDT  -99.99 -99.99    8  208    9  67.8 -99.9 1011.4 -9.9 -9.999 -99.9 -99.99 -9.99
2019/05/18 04:30 EDT  -99.99 -99.99    8  217   10  67.6 -99.9 1011.4 -9.9 -9.999 -99.9 -99.99 -9.99
2019/05/18 04:36 EDT  -99.99 -99.99    9  228   10  67.5 -99.9 1011.5 -9.9 -9.999 -99.9 -99.99 -9.99
2019/05/18 04:42 EDT  -99.99 -99.99    9  227   10  67.3 -99.9 1011.6 -9.9 -9.999 -99.9 -99.99 -9.99
2019/05/18 04:48 EDT  -99.99 -99.99    8  231   10  67.3 -99.9 1011.7 -9.9 -9.999 -99.9 -99.99 -9.99
2019/05/18 04:54 EDT  -99.99 -99.99    7  229    8  67.1 -99.9 1011.6 -9.9 -9.999 -99.9 -99.99 -9.99
2019/05/18 05:00 EDT  -99.99 -99.99    6  228    7  67.1 -99.9 1011.8 -9.9 -9.999 -99.9 -99.99 -9.99
2019/05/18 05:06 EDT  -99.99 -99.99    6  219    7  67.3 -99.9 1011.8 -9.9 -9.999 -99.9 -99.99 -9.99
2019/05/18 05:12 EDT  -99.99 -99.99    7  213    7  67.1 -99.9 1011.8 -9.9 -9.999 -99.9 -99.99 -9.99
2019/05/18 05:18 EDT  -99.99 -99.99    7  219    8  67.3 -99.9 1011.9 -9.9 -9.999 -99.9 -99.99 -9.99
2019/05/18 05:24 EDT  -99.99 -99.99    7  221    8  67.5 -99.9 1011.9 -9.9 -9.999 -99.9 -99.99 -9.99
2019/05/18 05:30 EDT  -99.99 -99.99    6  219    7  67.5 -99.9 1011.9 -9.9 -9.999 -99.9 -99.99 -9.99
2019/05/18 05:36 EDT  -99.99 -99.99    6  217    7  67.5 -99.9 1012.0 -9.9 -9.999 -99.9 -99.99 -9.99
2019/05/18 05:42 EDT  -99.99 -99.99    7  225    8  67.5 -99.9 1012.0 -9.9 -9.999 -99.9 -99.99 -9.99
2019/05/18 05:48 EDT  -99.99 -99.99    6  229    8  67.5 -99.9 1012.1 -9.9 -9.999 -99.9 -99.99 -9.99
2019/05/18 05:54 EDT  -99.99 -99.99    5  232    6  67.5 -99.9 1012.2 -9.9 -9.999 -99.9 -99.99 -9.99
2019/05/18 06:00 EDT  -99.99 -99.99    5  230    6  67.6 -99.9 1012.3 -9.9 -9.999 -99.9 -99.99 -9.99
2019/05/18 06:06 EDT  -99.99 -99.99    6  217    7  67.6 -99.9 1012.4 -9.9 -9.999 -99.9 -99.99 -9.99
2019/05/18 06:12 EDT  -99.99 -99.99    7  224    7  67.6 -99.9 1012.4 -9.9 -9.999 -99.9 -99.99 -9.99
2019/05/18 06:18 EDT  -99.99 -99.99    6  237    7  67.6 -99.9 1012.6 -9.9 -9.999 -99.9 -99.99 -9.99
2019/05/18 06:24 EDT  -99.99 -99.99    4  244    6  67.6 -99.9 1012.8 -9.9 -9.999 -99.9 -99.99 -9.99
2019/05/18 06:30 EDT  -99.99 -99.99    4  240    5  67.8 -99.9 1013.0 -9.9 -9.999 -99.9 -99.99 -9.99
2019/05/18 06:36 EDT  -99.99 -99.99    4  256    5  67.8 -99.9 1013.1 -9.9 -9.999 -99.9 -99.99 -9.99
2019/05/18 06:42 EDT  -99.99 -99.99    3  264    4  67.8 -99.9 1013.1 -9.9 -9.999 -99.9 -99.99 -9.99
2019/05/18 06:48 EDT  -99.99 -99.99    3  247    4  67.8 -99.9 1013.2 -9.9 -9.999 -99.9 -99.99 -9.99
2019/05/18 06:54 EDT  -99.99 -99.99    3  255    3  68.0 -99.9 1013.3 -9.9 -9.999 -99.9 -99.99 -9.99
2019/05/18 07:00 EDT  -99.99 -99.99    2  281    3  68.2 -99.9 1013.5 -9.9 -9.999 -99.9 -99.99 -9.99
2019/05/18 07:06 EDT  -99.99 -99.99    2  302    3  68.4 -99.9 1013.6 -9.9 -9.999 -99.9 -99.99 -9.99
2019/05/18 07:12 EDT  -99.99 -99.99    0  283    2  69.1 -99.9 1013.5 -9.9 -9.999 -99.9 -99.99 -9.99
2019/05/18 07:18 EDT  -99.99 -99.99    2  342    2  68.5 -99.9 1013.6 -9.9 -9.999 -99.9 -99.99 -9.99
2019/05/18 07:24 EDT  -99.99 -99.99    2  307    2  68.7 -99.9 1013.6 -9.9 -9.999 -99.9 -99.99 -9.99
2019/05/18 07:30 EDT  -99.99 -99.99    2  294    3  68.7 -99.9 1013.6 -9.9 -9.999 -99.9 -99.99 -9.99
2019/05/18 07:36 EDT  -99.99 -99.99    3  309    4  68.7 -99.9 1013.7 -9.9 -9.999 -99.9 -99.99 -9.99
2019/05/18 07:42 EDT  -99.99 -99.99    4  304    4  68.7 -99.9 1013.9 -9.9 -9.999 -99.9 -99.99 -9.99
2019/05/18 07:48 EDT  -99.99 -99.99    4  286    5  69.3 -99.9 1013.9 -9.9 -9.999 -99.9 -99.99 -9.99
2019/05/18 07:54 EDT  -99.99 -99.99    3  276    4  69.3 -99.9 1013.9 -9.9 -9.999 -99.9 -99.99 -9.99
2019/05/18 08:00 EDT  -99.99 -99.99    3  268    3  69.6 -99.9 1013.9 -9.9 -9.999 -99.9 -99.99 -9.99
2019/05/18 08:06 EDT  -99.99 -99.99    2  256    3  69.6 -99.9 1013.8 -9.9 -9.999 -99.9 -99.99 -9.99
2019/05/18 08:12 EDT  -99.99 -99.99    3  246    3  69.6 -99.9 1013.9 -9.9 -9.999 -99.9 -99.99 -9.99
2019/05/18 08:18 EDT  -99.99 -99.99    1  260    3  70.3 -99.9 1013.8 -9.9 -9.999 -99.9 -99.99 -9.99
2019/05/18 08:24 EDT  -99.99 -99.99    2  302    2  70.5 -99.9 1014.0 -9.9 -9.999 -99.9 -99.99 -9.99
2019/05/18 08:30 EDT  -99.99 -99.99    3  306    3  70.0 -99.9 1014.1 -9.9 -9.999 -99.9 -99.99 -9.99
2019/05/18 08:36 EDT  -99.99 -99.99    3  315    4  70.0 -99.9 1014.2 -9.9 -9.999 -99.9 -99.99 -9.99
2019/05/18 08:42 EDT  -99.99 -99.99    3  324    4  69.6 -99.9 1014.3 -9.9 -9.999 -99.9 -99.99 -9.99
2019/05/18 08:48 EDT  -99.99 -99.99    2  318    3  69.6 -99.9 1014.4 -9.9 -9.999 -99.9 -99.99 -9.99
2019/05/18 08:54 EDT  -99.99 -99.99    0  313    1  70.2 -99.9 1014.5 -9.9 -9.999 -99.9 -99.99 -9.99
2019/05/18 09:00 EDT  -99.99 -99.99    0  337    0  70.9 -99.9 1014.6 -9.9 -9.999 -99.9 -99.99 -9.99
2019/05/18 09:06 EDT  -99.99 -99.99    1  107    1  71.8 -99.9 1014.6 -9.9 -9.999 -99.9 -99.99 -9.99
2019/05/18 09:12 EDT  -99.99 -99.99    1  111    1  72.9 -99.9 1014.8 -9.9 -9.999 -99.9 -99.99 -9.99
2019/05/18 09:18 EDT  -99.99 -99.99    0  151    1  74.8 -99.9 1014.9 -9.9 -9.999 -99.9 -99.99 -9.99
2019/05/18 09:24 EDT  -99.99 -99.99    0  162    0  75.4 -99.9 1014.9 -9.9 -9.999 -99.9 -99.99 -9.99
2019/05/18 09:30 EDT  -99.99 -99.99    3  111    3  71.4 -99.9 1014.9 -9.9 -9.999 -99.9 -99.99 -9.99
2019/05/18 09:36 EDT  -99.99 -99.99    2  102    4  72.0 -99.9 1014.9 -9.9 -9.999 -99.9 -99.99 -9.99
2019/05/18 09:42 EDT  -99.99 -99.99    2  118    2  72.7 -99.9 1015.0 -9.9 -9.999 -99.9 -99.99 -9.99
2019/05/18 09:48 EDT  -99.99 -99.99    2  119    2  73.0 -99.9 1015.0 -9.9 -9.999 -99.9 -99.99 -9.99
2019/05/18 09:54 EDT  -99.99 -99.99    2  124    2  72.9 -99.9 1015.1 -9.9 -9.999 -99.9 -99.99 -9.99
2019/05/18 10:00 EDT  -99.99 -99.99    3   94    3  72.0 -99.9 1015.1 -9.9 -9.999 -99.9 -99.99 -9.99
2019/05/18 10:06 EDT  -99.99 -99.99    4   71    4  71.8 -99.9 1015.2 -9.9 -9.999 -99.9 -99.99 -9.99
2019/05/18 10:12 EDT  -99.99 -99.99    4   70    4  71.6 -99.9 1015.3 -9.9 -9.999 -99.9 -99.99 -9.99
2019/05/18 10:18 EDT  -99.99 -99.99    4   61    4  71.2 -99.9 1015.5 -9.9 -9.999 -99.9 -99.99 -9.99
2019/05/18 10:24 EDT  -99.99 -99.99    4   72    4  71.1 -99.9 1015.5 -9.9 -9.999 -99.9 -99.99 -9.99
2019/05/18 10:30 EDT  -99.99 -99.99    5   64    5  72.0 -99.9 1015.4 -9.9 -9.999 -99.9 -99.99 -9.99
2019/05/18 10:36 EDT  -99.99 -99.99    5   80    5  71.1 -99.9 1015.4 -9.9 -9.999 -99.9 -99.99 -9.99
2019/05/18 10:42 EDT  -99.99 -99.99    5   99    5  70.7 -99.9 1015.4 -9.9 -9.999 -99.9 -99.99 -9.99
2019/05/18 10:48 EDT  -99.99 -99.99    4  105    5  70.7 -99.9 1015.5 -9.9 -9.999 -99.9 -99.99 -9.99
2019/05/18 10:54 EDT  -99.99 -99.99    4   90    5  70.7 -99.9 1015.7 -9.9 -9.999 -99.9 -99.99 -9.99
2019/05/18 11:00 EDT  -99.99 -99.99    4  103    4  70.7 -99.9 1015.6 -9.9 -9.999 -99.9 -99.99 -9.99
2019/05/18 11:06 EDT  -99.99 -99.99    4  107    5  70.7 -99.9 1015.6 -9.9 -9.999 -99.9 -99.99 -9.99
2019/05/18 11:12 EDT  -99.99 -99.99    5   99    5  71.1 -99.9 1015.6 -9.9 -9.999 -99.9 -99.99 -9.99
2019/05/18 11:18 EDT  -99.99 -99.99    4  102    5  71.2 -99.9 1015.6 -9.9 -9.999 -99.9 -99.99 -9.99
2019/05/18 11:24 EDT  -99.99 -99.99    4  113    4  71.2 -99.9 1015.6 -9.9 -9.999 -99.9 -99.99 -9.99
2019/05/18 11:30 EDT  -99.99 -99.99    3   95    4  71.4 -99.9 1015.6 -9.9 -9.999 -99.9 -99.99 -9.99
2019/05/18 11:36 EDT  -99.99 -99.99    2   59    4  71.4 -99.9 1015.6 -9.9 -9.999 -99.9 -99.99 -9.99
2019/05/18 11:42 EDT  -99.99 -99.99    3   58    3  71.6 -99.9 1015.6 -9.9 -9.999 -99.9 -99.99 -9.99
2019/05/18 11:48 EDT  -99.99 -99.99    2   44    3  72.5 -99.9 1015.4 -9.9 -9.999 -99.9 -99.99 -9.99
2019/05/18 11:54 EDT  -99.99 -99.99    1   17    2  72.9 -99.9 1015.4 -9.9 -9.999 -99.9 -99.99 -9.99
2019/05/18 12:00 EDT  -99.99 -99.99    1    8    1  73.8 -99.9 1015.4 -9.9 -9.999 -99.9 -99.99 -9.99
2019/05/18 12:06 EDT  -99.99 -99.99    2   16    2  73.2 -99.9 1015.5 -9.9 -9.999 -99.9 -99.99 -9.99
2019/05/18 12:12 EDT  -99.99 -99.99    2    9    3  72.5 -99.9 1015.5 -9.9 -9.999 -99.9 -99.99 -9.99
2019/05/18 12:18 EDT  -99.99 -99.99    4   19    5  71.8 -99.9 1015.5 -9.9 -9.999 -99.9 -99.99 -9.99
2019/05/18 12:24 EDT  -99.99 -99.99    5   18    6  72.0 -99.9 1015.6 -9.9 -9.999 -99.9 -99.99 -9.99
2019/05/18 12:30 EDT  -99.99 -99.99    7   22    7  71.2 -99.9 1015.7 -9.9 -9.999 -99.9 -99.99 -9.99
2019/05/18 12:36 EDT  -99.99 -99.99    6   32    8  71.4 -99.9 1015.6 -9.9 -9.999 -99.9 -99.99 -9.99
2019/05/18 12:42 EDT  -99.99 -99.99    7   28    7  71.4 -99.9 1015.6 -9.9 -9.999 -99.9 -99.99 -9.99
2019/05/18 12:48 EDT  -99.99 -99.99    6   28    6  71.4 -99.9 1015.6 -9.9 -9.999 -99.9 -99.99 -9.99
2019/05/18 12:54 EDT  -99.99 -99.99    6   34    6  71.8 -99.9 1015.5 -9.9 -9.999 -99.9 -99.99 -9.99
2019/05/18 13:00 EDT  -99.99 -99.99    8   37    8  72.3 -99.9 1015.6 -9.9 -9.999 -99.9 -99.99 -9.99
2019/05/18 13:06 EDT  -99.99 -99.99    8   33    8  71.4 -99.9 1015.6 -9.9 -9.999 -99.9 -99.99 -9.99
2019/05/18 13:12 EDT  -99.99 -99.99    8   34    9  71.2 -99.9 1015.7 -9.9 -9.999 -99.9 -99.99 -9.99
2019/05/18 13:18 EDT  -99.99 -99.99    8   39    9  71.1 -99.9 1015.7 -9.9 -9.999 -99.9 -99.99 -9.99
2019/05/18 13:24 EDT  -99.99 -99.99    9   42    9  71.4 -99.9 1015.7 -9.9 -9.999 -99.9 -99.99 -9.99
2019/05/18 13:30 EDT  -99.99 -99.99    9   43   10  71.4 -99.9 1015.7 -9.9 -9.999 -99.9 -99.99 -9.99
2019/05/18 13:36 EDT  -99.99 -99.99    9   48   11  71.6 -99.9 1015.7 -9.9 -9.999 -99.9 -99.99 -9.99
2019/05/18 13:42 EDT  -99.99 -99.99   12   62   14  72.1 -99.9 1015.6 -9.9 -9.999 -99.9 -99.99 -9.99
2019/05/18 13:48 EDT  -99.99 -99.99   15   60   17  70.9 -99.9 1015.6 -9.9 -9.999 -99.9 -99.99 -9.99
2019/05/18 13:54 EDT  -99.99 -99.99   14   70   16  70.0 -99.9 1015.5 -9.9 -9.999 -99.9 -99.99 -9.99
2019/05/18 14:00 EDT  -99.99 -99.99   14   75   16  69.1 -99.9 1015.4 -9.9 -9.999 -99.9 -99.99 -9.99
2019/05/18 14:06 EDT  -99.99 -99.99   14   74   16  69.1 -99.9 1015.5 -9.9 -9.999 -99.9 -99.99 -9.99
2019/05/18 14:12 EDT  -99.99 -99.99   13   72   16  69.1 -99.9 1015.6 -9.9 -9.999 -99.9 -99.99 -9.99
2019/05/18 14:18 EDT  -99.99 -99.99   13   74   16  68.9 -99.9 1015.5 -9.9 -9.999 -99.9 -99.99 -9.99
2019/05/18 14:24 EDT  -99.99 -99.99   13   80   16  68.4 -99.9 1015.5 -9.9 -9.999 -99.9 -99.99 -9.99
2019/05/18 14:30 EDT  -99.99 -99.99   12   74   16  68.5 -99.9 1015.6 -9.9 -9.999 -99.9 -99.99 -9.99
2019/05/18 14:36 EDT  -99.99 -99.99   14   81   15  68.2 -99.9 1015.5 -9.9 -9.999 -99.9 -99.99 -9.99
2019/05/18 14:42 EDT  -99.99 -99.99   13   82   15  67.8 -99.9 1015.5 -9.9 -9.999 -99.9 -99.99 -9.99
2019/05/18 14:48 EDT  -99.99 -99.99   13   82   16  67.6 -99.9 1015.5 -9.9 -9.999 -99.9 -99.99 -9.99
2019/05/18 14:54 EDT  -99.99 -99.99   14   80   15  67.5 -99.9 1015.4 -9.9 -9.999 -99.9 -99.99 -9.99
2019/05/18 15:00 EDT  -99.99 -99.99   12   82   16  67.3 -99.9 1015.4 -9.9 -9.999 -99.9 -99.99 -9.99
2019/05/18 15:06 EDT  -99.99 -99.99   13   87   15  67.1 -99.9 1015.3 -9.9 -9.999 -99.9 -99.99 -9.99
2019/05/18 15:12 EDT  -99.99 -99.99   14   92   15  67.1 -99.9 1015.2 -9.9 -9.999 -99.9 -99.99 -9.99
2019/05/18 15:18 EDT  -99.99 -99.99   14   81   15  67.1 -99.9 1015.1 -9.9 -9.999 -99.9 -99.99 -9.99
2019/05/18 15:24 EDT  -99.99 -99.99   13   84   15  67.1 -99.9 1015.0 -9.9 -9.999 -99.9 -99.99 -9.99
2019/05/18 15:30 EDT  -99.99 -99.99   13   80   15  66.9 -99.9 1015.0 -9.9 -9.999 -99.9 -99.99 -9.99
2019/05/18 15:36 EDT  -99.99 -99.99   12   83   14  66.9 -99.9 1015.0 -9.9 -9.999 -99.9 -99.99 -9.99
2019/05/18 15:42 EDT  -99.99 -99.99   12   83   14  66.7 -99.9 1014.9 -9.9 -9.999 -99.9 -99.99 -9.99
2019/05/18 15:48 EDT  -99.99 -99.99   12   87   14  66.9 -99.9 1014.8 -9.9 -9.999 -99.9 -99.99 -9.99
2019/05/18 15:54 EDT  -99.99 -99.99   14   85   15  66.9 -99.9 1014.8 -9.9 -9.999 -99.9 -99.99 -9.99
2019/05/18 16:00 EDT  -99.99 -99.99   13   89   16  66.9 -99.9 1014.7 -9.9 -9.999 -99.9 -99.99 -9.99
2019/05/18 16:06 EDT  -99.99 -99.99   13   87   16  66.9 -99.9 1014.7 -9.9 -9.999 -99.9 -99.99 -9.99
2019/05/18 16:12 EDT  -99.99 -99.99   13   96   15  66.7 -99.9 1014.7 -9.9 -9.999 -99.9 -99.99 -9.99
2019/05/18 16:18 EDT  -99.99 -99.99   13   87   15  66.7 -99.9 1014.7 -9.9 -9.999 -99.9 -99.99 -9.99
2019/05/18 16:24 EDT  -99.99 -99.99   12   87   13  66.7 -99.9 1014.7 -9.9 -9.999 -99.9 -99.99 -9.99
2019/05/18 16:30 EDT  -99.99 -99.99   12   89   13  67.1 -99.9 1014.7 -9.9 -9.999 -99.9 -99.99 -9.99
2019/05/18 16:36 EDT  -99.99 -99.99   11   84   13  66.9 -99.9 1014.7 -9.9 -9.999 -99.9 -99.99 -9.99
2019/05/18 16:42 EDT  -99.99 -99.99   12   85   13  66.9 -99.9 1014.7 -9.9 -9.999 -99.9 -99.99 -9.99
2019/05/18 16:48 EDT  -99.99 -99.99   12   86   13  67.1 -99.9 1014.7 -9.9 -9.999 -99.9 -99.99 -9.99
2019/05/18 16:54 EDT  -99.99 -99.99   11   83   13  67.3 -99.9 1014.7 -9.9 -9.999 -99.9 -99.99 -9.99
2019/05/18 17:00 EDT  -99.99 -99.99   13   81   14  67.3 -99.9 1014.7 -9.9 -9.999 -99.9 -99.99 -9.99
2019/05/18 17:06 EDT  -99.99 -99.99   13   79   14  67.5 -99.9 1014.7 -9.9 -9.999 -99.9 -99.99 -9.99
2019/05/18 17:12 EDT  -99.99 -99.99   11   80   13  68.4 -99.9 1014.7 -9.9 -9.999 -99.9 -99.99 -9.99
2019/05/18 17:18 EDT  -99.99 -99.99   12   76   13  68.4 -99.9 1014.7 -9.9 -9.999 -99.9 -99.99 -9.99
2019/05/18 17:24 EDT  -99.99 -99.99   12   81   14  68.2 -99.9 1014.7 -9.9 -9.999 -99.9 -99.99 -9.99
2019/05/18 17:30 EDT  -99.99 -99.99   13   77   14  68.2 -99.9 1014.7 -9.9 -9.999 -99.9 -99.99 -9.99
2019/05/18 17:36 EDT  -99.99 -99.99   13   78   14  68.2 -99.9 1014.7 -9.9 -9.999 -99.9 -99.99 -9.99
2019/05/18 17:42 EDT  -99.99 -99.99   13   77   15  68.4 -99.9 1014.8 -9.9 -9.999 -99.9 -99.99 -9.99
2019/05/18 17:48 EDT  -99.99 -99.99   13   78   15  68.4 -99.9 1014.9 -9.9 -9.999 -99.9 -99.99 -9.99
2019/05/18 17:54 EDT  -99.99 -99.99   13   74   16  68.4 -99.9 1014.9 -9.9 -9.999 -99.9 -99.99 -9.99
2019/05/18 18:00 EDT  -99.99 -99.99   13   76   15  68.2 -99.9 1014.9 -9.9 -9.999 -99.9 -99.99 -9.99
2019/05/18 18:06 EDT  -99.99 -99.99   14   75   15  68.0 -99.9 1014.9 -9.9 -9.999 -99.9 -99.99 -9.99
2019/05/18 18:12 EDT  -99.99 -99.99   14   82   15  68.0 -99.9 1014.8 -9.9 -9.999 -99.9 -99.99 -9.99
2019/05/18 18:18 EDT  -99.99 -99.99   13   83   15  68.2 -99.9 1014.9 -9.9 -9.999 -99.9 -99.99 -9.99
2019/05/18 18:24 EDT  -99.99 -99.99   13   82   15  68.4 -99.9 1014.8 -9.9 -9.999 -99.9 -99.99 -9.99
2019/05/18 18:30 EDT  -99.99 -99.99   14   81   15  68.4 -99.9 1014.7 -9.9 -9.999 -99.9 -99.99 -9.99
2019/05/18 18:36 EDT  -99.99 -99.99   12   83   15  68.7 -99.9 1014.8 -9.9 -9.999 -99.9 -99.99 -9.99
2019/05/18 18:42 EDT  -99.99 -99.99   12   91   14  68.7 -99.9 1014.9 -9.9 -9.999 -99.9 -99.99 -9.99
2019/05/18 18:48 EDT  -99.99 -99.99   13   88   15  68.5 -99.9 1015.0 -9.9 -9.999 -99.9 -99.99 -9.99
2019/05/18 18:54 EDT  -99.99 -99.99   14   89   15  68.7 -99.9 1015.0 -9.9 -9.999 -99.9 -99.99 -9.99
2019/05/18 19:00 EDT  -99.99 -99.99   13   91   15  68.9 -99.9 1015.1 -9.9 -9.999 -99.9 -99.99 -9.99
2019/05/18 19:06 EDT  -99.99 -99.99   13   89   15  68.5 -99.9 1015.1 -9.9 -9.999 -99.9 -99.99 -9.99
2019/05/18 19:12 EDT  -99.99 -99.99   13   90   16  68.7 -99.9 1015.1 -9.9 -9.999 -99.9 -99.99 -9.99
2019/05/18 19:18 EDT  -99.99 -99.99   14   89   15  68.7 -99.9 1015.2 -9.9 -9.999 -99.9 -99.99 -9.99
2019/05/18 19:24 EDT  -99.99 -99.99   14   91   16  68.7 -99.9 1015.4 -9.9 -9.999 -99.9 -99.99 -9.99
2019/05/18 19:30 EDT  -99.99 -99.99   13   92   14  69.1 -99.9 1015.4 -9.9 -9.999 -99.9 -99.99 -9.99
2019/05/18 19:36 EDT  -99.99 -99.99   13  100   16  69.6 -99.9 1015.4 -9.9 -9.999 -99.9 -99.99 -9.99
2019/05/18 19:42 EDT  -99.99 -99.99   13   99   15  69.8 -99.9 1015.5 -9.9 -9.999 -99.9 -99.99 -9.99
2019/05/18 19:48 EDT  -99.99 -99.99   12   99   14  69.6 -99.9 1015.5 -9.9 -9.999 -99.9 -99.99 -9.99
2019/05/18 19:54 EDT  -99.99 -99.99   11   98   13  69.8 -99.9 1015.6 -9.9 -9.999 -99.9 -99.99 -9.99
2019/05/18 20:00 EDT  -99.99 -99.99   11   97   12  70.2 -99.9 1015.6 -9.9 -9.999 -99.9 -99.99 -9.99
2019/05/18 20:06 EDT  -99.99 -99.99    9   96   11  70.3 -99.9 1015.7 -9.9 -9.999 -99.9 -99.99 -9.99
2019/05/18 20:12 EDT  -99.99 -99.99    7  115    9  71.6 -99.9 1015.7 -9.9 -9.999 -99.9 -99.99 -9.99
2019/05/18 20:18 EDT  -99.99 -99.99    9  131   11  72.0 -99.9 1015.7 -9.9 -9.999 -99.9 -99.99 -9.99
2019/05/18 20:24 EDT  -99.99 -99.99    9  126    9  71.8 -99.9 1015.7 -9.9 -9.999 -99.9 -99.99 -9.99
2019/05/18 20:30 EDT  -99.99 -99.99   10  134   11  71.8 -99.9 1015.7 -9.9 -9.999 -99.9 -99.99 -9.99
2019/05/18 20:36 EDT  -99.99 -99.99   10  138   11  71.6 -99.9 1015.7 -9.9 -9.999 -99.9 -99.99 -9.99
2019/05/18 20:42 EDT  -99.99 -99.99    9  141   11  71.4 -99.9 1015.7 -9.9 -9.999 -99.9 -99.99 -9.99
2019/05/18 20:48 EDT  -99.99 -99.99    9  139   10  71.2 -99.9 1015.8 -9.9 -9.999 -99.9 -99.99 -9.99
2019/05/18 20:54 EDT  -99.99 -99.99    9  139   10  71.1 -99.9 1015.8 -9.9 -9.999 -99.9 -99.99 -9.99
2019/05/18 21:00 EDT  -99.99 -99.99    7  138    9  71.1 -99.9 1015.9 -9.9 -9.999 -99.9 -99.99 -9.99
2019/05/18 21:06 EDT  -99.99 -99.99   10  138   11  71.1 -99.9 1015.9 -9.9 -9.999 -99.9 -99.99 -9.99
2019/05/18 21:12 EDT  -99.99 -99.99    9  137   10  70.9 -99.9 1016.0 -9.9 -9.999 -99.9 -99.99 -9.99
2019/05/18 21:18 EDT  -99.99 -99.99    8  134    9  70.7 -99.9 1016.1 -9.9 -9.999 -99.9 -99.99 -9.99
2019/05/18 21:24 EDT  -99.99 -99.99    7  139   10  70.7 -99.9 1016.1 -9.9 -9.999 -99.9 -99.99 -9.99
2019/05/18 21:30 EDT  -99.99 -99.99    8  132   10  70.7 -99.9 1016.2 -9.9 -9.999 -99.9 -99.99 -9.99
2019/05/18 21:36 EDT  -99.99 -99.99    8  135   10  70.5 -99.9 1016.3 -9.9 -9.999 -99.9 -99.99 -9.99
2019/05/18 21:42 EDT  -99.99 -99.99    9  134   13  70.5 -99.9 1016.4 -9.9 -9.999 -99.9 -99.99 -9.99
2019/05/18 21:48 EDT  -99.99 -99.99    8  131   11  70.5 -99.9 1016.5 -9.9 -9.999 -99.9 -99.99 -9.99
2019/05/18 21:54 EDT  -99.99 -99.99    8  137   10  70.3 -99.9 1016.5 -9.9 -9.999 -99.9 -99.99 -9.99
2019/05/18 22:00 EDT  -99.99 -99.99    8  144    9  70.3 -99.9 1016.6 -9.9 -9.999 -99.9 -99.99 -9.99
2019/05/18 22:06 EDT  -99.99 -99.99    9  141   10  70.2 -99.9 1016.6 -9.9 -9.999 -99.9 -99.99 -9.99
2019/05/18 22:12 EDT  -99.99 -99.99    7  135    9  70.2 -99.9 1016.7 -9.9 -9.999 -99.9 -99.99 -9.99
2019/05/18 22:18 EDT  -99.99 -99.99    7  138    9  70.2 -99.9 1016.7 -9.9 -9.999 -99.9 -99.99 -9.99
2019/05/18 22:24 EDT  -99.99 -99.99    7  156    9  70.3 -99.9 1016.8 -9.9 -9.999 -99.9 -99.99 -9.99
2019/05/18 22:30 EDT  -99.99 -99.99   10  163   11  70.3 -99.9 1016.7 -9.9 -9.999 -99.9 -99.99 -9.99
2019/05/18 22:36 EDT  -99.99 -99.99    9  162   11  70.3 -99.9 1016.8 -9.9 -9.999 -99.9 -99.99 -9.99
2019/05/18 22:42 EDT  -99.99 -99.99    8  164   10  70.2 -99.9 1016.8 -9.9 -9.999 -99.9 -99.99 -9.99
2019/05/18 22:48 EDT  -99.99 -99.99    7  159    8  70.2 -99.9 1016.8 -9.9 -9.999 -99.9 -99.99 -9.99
2019/05/18 22:54 EDT  -99.99 -99.99    6  152    9  70.2 -99.9 1016.8 -9.9 -9.999 -99.9 -99.99 -9.99
2019/05/18 23:00 EDT  -99.99 -99.99    7  160   10  70.2 -99.9 1016.8 -9.9 -9.999 -99.9 -99.99 -9.99
2019/05/18 23:06 EDT  -99.99 -99.99    8  161   10  70.2 -99.9 1016.8 -9.9 -9.999 -99.9 -99.99 -9.99
2019/05/18 23:12 EDT  -99.99 -99.99    7  157   10  70.3 -99.9 1016.8 -9.9 -9.999 -99.9 -99.99 -9.99
2019/05/18 23:18 EDT  -99.99 -99.99    7  153    9  70.2 -99.9 1016.8 -9.9 -9.999 -99.9 -99.99 -9.99
2019/05/18 23:24 EDT  -99.99 -99.99    7  147   10  70.2 -99.9 1016.8 -9.9 -9.999 -99.9 -99.99 -9.99
2019/05/18 23:30 EDT  -99.99 -99.99    7  160    9  70.2 -99.9 1016.8 -9.9 -9.999 -99.9 -99.99 -9.99
2019/05/18 23:36 EDT  -99.99 -99.99    7  154    8  70.2 -99.9 1016.8 -9.9 -9.999 -99.9 -99.99 -9.99
2019/05/18 23:42 EDT  -99.99 -99.99    8  148    9  70.2 -99.9 1016.8 -9.9 -9.999 -99.9 -99.99 -9.99
2019/05/18 23:48 EDT  -99.99 -99.99    7  147   10  70.2 -99.9 1016.8 -9.9 -9.999 -99.9 -99.99 -9.99
2019/05/18 23:54 EDT  -99.99 -99.99    8  145   10  70.2 -99.9 1016.8 -9.9 -9.999 -99.9 -99.99 -9.99
2019/05/19 00:00 EDT  -99.99 -99.99    6  137   10  70.0 -99.9 1016.8 -9.9 -9.999 -99.9 -99.99 -9.99
2019/05/19 00:06 EDT  -99.99 -99.99    6  139    8  70.0 -99.9 1016.9 -9.9 -9.999 -99.9 -99.99 -9.99
2019/05/19 00:12 EDT  -99.99 -99.99    6  136    7  70.0 -99.9 1016.9 -9.9 -9.999 -99.9 -99.99 -9.99
2019/05/19 00:18 EDT  -99.99 -99.99    6  144    7  70.0 -99.9 1017.0 -9.9 -9.999 -99.9 -99.99 -9.99
2019/05/19 00:24 EDT  -99.99 -99.99    6  143    9  70.2 -99.9 1017.1 -9.9 -9.999 -99.9 -99.99 -9.99
2019/05/19 00:30 EDT  -99.99 -99.99    5  152    8  70.2 -99.9 1017.1 -9.9 -9.999 -99.9 -99.99 -9.99
2019/05/19 00:36 EDT  -99.99 -99.99    7  159    8  70.0 -99.9 1017.1 -9.9 -9.999 -99.9 -99.99 -9.99
2019/05/19 00:42 EDT  -99.99 -99.99    7  158    9  70.0 -99.9 1017.0 -9.9 -9.999 -99.9 -99.99 -9.99
2019/05/19 00:48 EDT  -99.99 -99.99    7  146    8  70.0 -99.9 1017.0 -9.9 -9.999 -99.9 -99.99 -9.99
2019/05/19 00:54 EDT  -99.99 -99.99    7  146    9  69.8 -99.9 1016.9 -9.9 -9.999 -99.9 -99.99 -9.99
2019/05/19 01:00 EDT  -99.99 -99.99    8  154    9  69.8 -99.9 1016.8 -9.9 -9.999 -99.9 -99.99 -9.99
2019/05/19 01:06 EDT  -99.99 -99.99    9  158   10  69.8 -99.9 1016.7 -9.9 -9.999 -99.9 -99.99 -9.99
2019/05/19 01:12 EDT  -99.99 -99.99    9  157   11  69.8 -99.9 1016.7 -9.9 -9.999 -99.9 -99.99 -9.99
2019/05/19 01:18 EDT  -99.99 -99.99   10  154   11  69.8 -99.9 1016.5 -9.9 -9.999 -99.9 -99.99 -9.99
2019/05/19 01:24 EDT  -99.99 -99.99   10  161   11  69.8 -99.9 1016.5 -9.9 -9.999 -99.9 -99.99 -9.99
2019/05/19 01:30 EDT  -99.99 -99.99   10  167   12  69.8 -99.9 1016.5 -9.9 -9.999 -99.9 -99.99 -9.99
2019/05/19 01:36 EDT  -99.99 -99.99   10  170   11  69.8 -99.9 1016.5 -9.9 -9.999 -99.9 -99.99 -9.99
2019/05/19 01:42 EDT  -99.99 -99.99    9  169   11  69.6 -99.9 1016.4 -9.9 -9.999 -99.9 -99.99 -9.99
2019/05/19 01:48 EDT  -99.99 -99.99   10  165   11  69.8 -99.9 1016.4 -9.9 -9.999 -99.9 -99.99 -9.99
2019/05/19 01:54 EDT  -99.99 -99.99   10  165   12  69.8 -99.9 1016.3 -9.9 -9.999 -99.9 -99.99 -9.99
2019/05/19 02:00 EDT  -99.99 -99.99   11  166   12  69.8 -99.9 1016.3 -9.9 -9.999 -99.9 -99.99 -9.99
2019/05/19 02:06 EDT  -99.99 -99.99   10  166   11  69.8 -99.9 1016.3 -9.9 -9.999 -99.9 -99.99 -9.99
2019/05/19 02:12 EDT  -99.99 -99.99   10  164   11  69.8 -99.9 1016.3 -9.9 -9.999 -99.9 -99.99 -9.99
2019/05/19 02:18 EDT  -99.99 -99.99   10  166   11  70.0 -99.9 1016.3 -9.9 -9.999 -99.9 -99.99 -9.99
2019/05/19 02:24 EDT  -99.99 -99.99   10  167   11  70.0 -99.9 1016.3 -9.9 -9.999 -99.9 -99.99 -9.99
2019/05/19 02:30 EDT  -99.99 -99.99   10  170   11  70.0 -99.9 1016.2 -9.9 -9.999 -99.9 -99.99 -9.99
2019/05/19 02:36 EDT  -99.99 -99.99    9  172   10  70.0 -99.9 1016.3 -9.9 -9.999 -99.9 -99.99 -9.99
2019/05/19 02:42 EDT  -99.99 -99.99    9  178   10  70.2 -99.9 1016.2 -9.9 -9.999 -99.9 -99.99 -9.99
2019/05/19 02:48 EDT  -99.99 -99.99    9  166   11  70.5 -99.9 1016.1 -9.9 -9.999 -99.9 -99.99 -9.99
2019/05/19 02:54 EDT  -99.99 -99.99    9  170   11  70.5 -99.9 1016.1 -9.9 -9.999 -99.9 -99.99 -9.99
2019/05/19 03:00 EDT  -99.99 -99.99    9  167   10  70.9 -99.9 1016.1 -9.9 -9.999 -99.9 -99.99 -9.99
2019/05/19 03:06 EDT  -99.99 -99.99    8  159   10  70.7 -99.9 1016.1 -9.9 -9.999 -99.9 -99.99 -9.99
2019/05/19 03:12 EDT  -99.99 -99.99    9  162   11  71.2 -99.9 1016.1 -9.9 -9.999 -99.9 -99.99 -9.99
2019/05/19 03:18 EDT  -99.99 -99.99    9  156   11  71.2 -99.9 1016.0 -9.9 -9.999 -99.9 -99.99 -9.99
2019/05/19 03:24 EDT  -99.99 -99.99    9  151   10  71.2 -99.9 1016.0 -9.9 -9.999 -99.9 -99.99 -9.99
2019/05/19 03:30 EDT  -99.99 -99.99   10  150   11  71.4 -99.9 1016.0 -9.9 -9.999 -99.9 -99.99 -9.99
2019/05/19 03:36 EDT  -99.99 -99.99   10  150   11  71.4 -99.9 1016.0 -9.9 -9.999 -99.9 -99.99 -9.99
2019/05/19 03:42 EDT  -99.99 -99.99    9  150   11  71.2 -99.9 1016.0 -9.9 -9.999 -99.9 -99.99 -9.99
2019/05/19 03:48 EDT  -99.99 -99.99    8  143   10  70.9 -99.9 1016.1 -9.9 -9.999 -99.9 -99.99 -9.99
2019/05/19 03:54 EDT  -99.99 -99.99   10  146   10  71.2 -99.9 1016.1 -9.9 -9.999 -99.9 -99.99 -9.99
2019/05/19 04:00 EDT  -99.99 -99.99    9  141   10  70.9 -99.9 1016.2 -9.9 -9.999 -99.9 -99.99 -9.99
2019/05/19 04:06 EDT  -99.99 -99.99    9  147   10  70.7 -99.9 1016.2 -9.9 -9.999 -99.9 -99.99 -9.99
2019/05/19 04:12 EDT  -99.99 -99.99    9  150    9  70.7 -99.9 1016.3 -9.9 -9.999 -99.9 -99.99 -9.99
2019/05/19 04:18 EDT  -99.99 -99.99    8  152   10  70.7 -99.9 1016.3 -9.9 -9.999 -99.9 -99.99 -9.99
2019/05/19 04:24 EDT  -99.99 -99.99    9  154   11  71.1 -99.9 1016.3 -9.9 -9.999 -99.9 -99.99 -9.99
2019/05/19 04:30 EDT  -99.99 -99.99   10  155   11  71.1 -99.9 1016.3 -9.9 -9.999 -99.9 -99.99 -9.99
2019/05/19 04:36 EDT  -99.99 -99.99    9  154   10  71.1 -99.9 1016.3 -9.9 -9.999 -99.9 -99.99 -9.99
2019/05/19 04:42 EDT  -99.99 -99.99    9  154   11  71.1 -99.9 1016.2 -9.9 -9.999 -99.9 -99.99 -9.99
2019/05/19 04:48 EDT  -99.99 -99.99   10  160   11  71.1 -99.9 1016.2 -9.9 -9.999 -99.9 -99.99 -9.99
2019/05/19 04:54 EDT  -99.99 -99.99   10  165   11  71.1 -99.9 1016.1 -9.9 -9.999 -99.9 -99.99 -9.99
2019/05/19 05:00 EDT  -99.99 -99.99   11  165   12  71.1 -99.9 1016.1 -9.9 -9.999 -99.9 -99.99 -9.99
2019/05/19 05:06 EDT  -99.99 -99.99   11  164   12  71.1 -99.9 1016.2 -9.9 -9.999 -99.9 -99.99 -9.99
2019/05/19 05:12 EDT  -99.99 -99.99   10  163   12  71.1 -99.9 1016.2 -9.9 -9.999 -99.9 -99.99 -9.99
2019/05/19 05:18 EDT  -99.99 -99.99   10  157   11  71.1 -99.9 1016.2 -9.9 -9.999 -99.9 -99.99 -9.99
2019/05/19 05:24 EDT  -99.99 -99.99   10  157   11  71.1 -99.9 1016.3 -9.9 -9.999 -99.9 -99.99 -9.99
2019/05/19 05:30 EDT  -99.99 -99.99   10  157   12  71.1 -99.9 1016.3 -9.9 -9.999 -99.9 -99.99 -9.99
2019/05/19 05:36 EDT  -99.99 -99.99   10  165   11  71.2 -99.9 1016.3 -9.9 -9.999 -99.9 -99.99 -9.99
2019/05/19 05:42 EDT  -99.99 -99.99   10  163   11  71.2 -99.9 1016.4 -9.9 -9.999 -99.9 -99.99 -9.99
2019/05/19 05:48 EDT  -99.99 -99.99   10  165   11  71.2 -99.9 1016.4 -9.9 -9.999 -99.9 -99.99 -9.99
2019/05/19 05:54 EDT  -99.99 -99.99    8  180   11  71.1 -99.9 1016.5 -9.9 -9.999 -99.9 -99.99 -9.99
2019/05/19 06:00 EDT  -99.99 -99.99    5  187    8  71.1 -99.9 1016.7 -9.9 -9.999 -99.9 -99.99 -9.99
2019/05/19 06:06 EDT  -99.99 -99.99    1  234    4  71.2 -99.9 1016.8 -9.9 -9.999 -99.9 -99.99 -9.99
2019/05/19 06:12 EDT  -99.99 -99.99    2  344    2  71.1 -99.9 1016.8 -9.9 -9.999 -99.9 -99.99 -9.99
2019/05/19 06:18 EDT  -99.99 -99.99    0   42    2  71.4 -99.9 1016.8 -9.9 -9.999 -99.9 -99.99 -9.99
2019/05/19 06:24 EDT  -99.99 -99.99    1  151    2  71.8 -99.9 1016.8 -9.9 -9.999 -99.9 -99.99 -9.99
2019/05/19 06:30 EDT  -99.99 -99.99    2  156    3  72.1 -99.9 1016.8 -9.9 -9.999 -99.9 -99.99 -9.99
2019/05/19 06:36 EDT  -99.99 -99.99    3  160    3  72.3 -99.9 1016.8 -9.9 -9.999 -99.9 -99.99 -9.99
2019/05/19 06:42 EDT  -99.99 -99.99    4  159    4  72.1 -99.9 1016.8 -9.9 -9.999 -99.9 -99.99 -9.99
2019/05/19 06:48 EDT  -99.99 -99.99    5  156    6  72.1 -99.9 1016.7 -9.9 -9.999 -99.9 -99.99 -9.99
2019/05/19 06:54 EDT  -99.99 -99.99    5  160    6  72.0 -99.9 1016.8 -9.9 -9.999 -99.9 -99.99 -9.99
2019/05/19 07:00 EDT  -99.99 -99.99    8  154    8  72.3 -99.9 1016.8 -9.9 -9.999 -99.9 -99.99 -9.99
2019/05/19 07:06 EDT  -99.99 -99.99    7  154    9  72.3 -99.9 1016.9 -9.9 -9.999 -99.9 -99.99 -9.99
2019/05/19 07:12 EDT  -99.99 -99.99    7  165    8  72.1 -99.9 1016.9 -9.9 -9.999 -99.9 -99.99 -9.99
2019/05/19 07:18 EDT  -99.99 -99.99    7  166    9  72.3 -99.9 1016.9 -9.9 -9.999 -99.9 -99.99 -9.99
2019/05/19 07:24 EDT  -99.99 -99.99    5  186    9  72.9 -99.9 1017.1 -9.9 -9.999 -99.9 -99.99 -9.99
2019/05/19 07:30 EDT  -99.99 -99.99    2  237    4  72.7 -99.9 1017.3 -9.9 -9.999 -99.9 -99.99 -9.99
2019/05/19 07:36 EDT  -99.99 -99.99    4  227    5  73.0 -99.9 1017.4 -9.9 -9.999 -99.9 -99.99 -9.99
2019/05/19 07:42 EDT  -99.99 -99.99    9  224    9  71.2 -99.9 1017.3 -9.9 -9.999 -99.9 -99.99 -9.99
2019/05/19 07:48 EDT  -99.99 -99.99   10  208   11  72.1 -99.9 1017.3 -9.9 -9.999 -99.9 -99.99 -9.99
2019/05/19 07:54 EDT  -99.99 -99.99   10  197   12  72.5 -99.9 1017.3 -9.9 -9.999 -99.9 -99.99 -9.99
2019/05/19 08:00 EDT  -99.99 -99.99    8  187   11  72.9 -99.9 1017.2 -9.9 -9.999 -99.9 -99.99 -9.99
2019/05/19 08:06 EDT  -99.99 -99.99    9  185   11  73.2 -99.9 1017.1 -9.9 -9.999 -99.9 -99.99 -9.99
2019/05/19 08:12 EDT  -99.99 -99.99    8  186   11  73.6 -99.9 1017.2 -9.9 -9.999 -99.9 -99.99 -9.99
2019/05/19 08:18 EDT  -99.99 -99.99   10  182   11  73.8 -99.9 1017.2 -9.9 -9.999 -99.9 -99.99 -9.99
2019/05/19 08:24 EDT  -99.99 -99.99   13  184   15  73.9 -99.9 1017.2 -9.9 -9.999 -99.9 -99.99 -9.99
2019/05/19 08:30 EDT  -99.99 -99.99   12  181   14  74.3 -99.9 1017.1 -9.9 -9.999 -99.9 -99.99 -9.99
2019/05/19 08:36 EDT  -99.99 -99.99   12  186   14  74.7 -99.9 1017.1 -9.9 -9.999 -99.9 -99.99 -9.99
2019/05/19 08:42 EDT  -99.99 -99.99   13  185   15  74.8 -99.9 1017.1 -9.9 -9.999 -99.9 -99.99 -9.99
2019/05/19 08:48 EDT  -99.99 -99.99   13  192   15  74.8 -99.9 1017.1 -9.9 -9.999 -99.9 -99.99 -9.99
2019/05/19 08:54 EDT  -99.99 -99.99   14  187   16  74.3 -99.9 1017.2 -9.9 -9.999 -99.9 -99.99 -9.99
2019/05/19 09:00 EDT  -99.99 -99.99   14  186   15  74.5 -99.9 1017.2 -9.9 -9.999 -99.9 -99.99 -9.99
2019/05/19 09:06 EDT  -99.99 -99.99   14  185   15  74.5 -99.9 1017.2 -9.9 -9.999 -99.9 -99.99 -9.99
2019/05/19 09:12 EDT  -99.99 -99.99   12  184   14  74.1 -99.9 1017.3 -9.9 -9.999 -99.9 -99.99 -9.99
2019/05/19 09:18 EDT  -99.99 -99.99   11  190   14  74.3 -99.9 1017.2 -9.9 -9.999 -99.9 -99.99 -9.99
2019/05/19 09:24 EDT  -99.99 -99.99   10  188   12  74.1 -99.9 1017.2 -9.9 -9.999 -99.9 -99.99 -9.99
2019/05/19 09:30 EDT  -99.99 -99.99   11  192   14  74.7 -99.9 1017.1 -9.9 -9.999 -99.9 -99.99 -9.99
2019/05/19 09:36 EDT  -99.99 -99.99   11  176   12  74.5 -99.9 1017.1 -9.9 -9.999 -99.9 -99.99 -9.99
2019/05/19 09:42 EDT  -99.99 -99.99   12  176   14  75.0 -99.9 1017.0 -9.9 -9.999 -99.9 -99.99 -9.99
2019/05/19 09:48 EDT  -99.99 -99.99   12  185   15  75.6 -99.9 1017.1 -9.9 -9.999 -99.9 -99.99 -9.99
2019/05/19 09:54 EDT  -99.99 -99.99   11  189   13  75.9 -99.9 1017.1 -9.9 -9.999 -99.9 -99.99 -9.99
2019/05/19 10:00 EDT  -99.99 -99.99   11  190   13  76.8 -99.9 1017.2 -9.9 -9.999 -99.9 -99.99 -9.99
2019/05/19 10:06 EDT  -99.99 -99.99    9  196   12  77.0 -99.9 1017.2 -9.9 -9.999 -99.9 -99.99 -9.99
2019/05/19 10:12 EDT  -99.99 -99.99    9  183   11  77.7 -99.9 1017.2 -9.9 -9.999 -99.9 -99.99 -9.99
2019/05/19 10:18 EDT  -99.99 -99.99    8  193    9  77.7 -99.9 1017.2 -9.9 -9.999 -99.9 -99.99 -9.99
2019/05/19 10:24 EDT  -99.99 -99.99    8  186    9  78.3 -99.9 1017.1 -9.9 -9.999 -99.9 -99.99 -9.99
2019/05/19 10:30 EDT  -99.99 -99.99    9  184   11  78.6 -99.9 1017.0 -9.9 -9.999 -99.9 -99.99 -9.99
2019/05/19 10:36 EDT  -99.99 -99.99    9  177   10  79.2 -99.9 1017.0 -9.9 -9.999 -99.9 -99.99 -9.99
2019/05/19 10:42 EDT  -99.99 -99.99   10  184   11  79.0 -99.9 1017.0 -9.9 -9.999 -99.9 -99.99 -9.99
2019/05/19 10:48 EDT  -99.99 -99.99   10  178   11  79.5 -99.9 1017.0 -9.9 -9.999 -99.9 -99.99 -9.99
2019/05/19 10:54 EDT  -99.99 -99.99    8  185   11  79.5 -99.9 1017.0 -9.9 -9.999 -99.9 -99.99 -9.99
2019/05/19 11:00 EDT  -99.99 -99.99    5  192    6  79.7 -99.9 1017.1 -9.9 -9.999 -99.9 -99.99 -9.99
2019/05/19 11:06 EDT  -99.99 -99.99    6  194    7  80.1 -99.9 1017.0 -9.9 -9.999 -99.9 -99.99 -9.99
2019/05/19 11:12 EDT  -99.99 -99.99    6  200    7  80.6 -99.9 1017.0 -9.9 -9.999 -99.9 -99.99 -9.99
2019/05/19 11:18 EDT  -99.99 -99.99    8  182    9  80.2 -99.9 1017.0 -9.9 -9.999 -99.9 -99.99 -9.99
2019/05/19 11:24 EDT  -99.99 -99.99    7  188    9  81.1 -99.9 1017.1 -9.9 -9.999 -99.9 -99.99 -9.99
2019/05/19 11:30 EDT  -99.99 -99.99    9  207   11  81.7 -99.9 1017.0 -9.9 -9.999 -99.9 -99.99 -9.99
2019/05/19 11:36 EDT  -99.99 -99.99   10  196   11  82.0 -99.9 1016.9 -9.9 -9.999 -99.9 -99.99 -9.99
2019/05/19 11:42 EDT  -99.99 -99.99    8  189   11  82.0 -99.9 1016.9 -9.9 -9.999 -99.9 -99.99 -9.99
2019/05/19 11:48 EDT  -99.99 -99.99   10  193   12  82.9 -99.9 1016.8 -9.9 -9.999 -99.9 -99.99 -9.99
2019/05/19 11:54 EDT  -99.99 -99.99    7  180   10  82.2 -99.9 1016.8 -9.9 -9.999 -99.9 -99.99 -9.99
2019/05/19 12:00 EDT  -99.99 -99.99   10  186   11  82.8 -99.9 1016.7 -9.9 -9.999 -99.9 -99.99 -9.99
2019/05/19 12:06 EDT  -99.99 -99.99   10  173   12  83.1 -99.9 1016.6 -9.9 -9.999 -99.9 -99.99 -9.99
2019/05/19 12:12 EDT  -99.99 -99.99   11  175   13  83.5 -99.9 1016.6 -9.9 -9.999 -99.9 -99.99 -9.99
2019/05/19 12:18 EDT  -99.99 -99.99   11  183   13  82.8 -99.9 1016.6 -9.9 -9.999 -99.9 -99.99 -9.99
2019/05/19 12:24 EDT  -99.99 -99.99    8  183   13  83.1 -99.9 1016.5 -9.9 -9.999 -99.9 -99.99 -9.99
2019/05/19 12:30 EDT  -99.99 -99.99   11  187   13  84.4 -99.9 1016.5 -9.9 -9.999 -99.9 -99.99 -9.99
2019/05/19 12:36 EDT  -99.99 -99.99   11  185   13  84.4 -99.9 1016.5 -9.9 -9.999 -99.9 -99.99 -9.99
2019/05/19 12:42 EDT  -99.99 -99.99   11  172   15  83.8 -99.9 1016.4 -9.9 -9.999 -99.9 -99.99 -9.99
2019/05/19 12:48 EDT  -99.99 -99.99    9  187   11  84.4 -99.9 1016.4 -9.9 -9.999 -99.9 -99.99 -9.99
2019/05/19 12:54 EDT  -99.99 -99.99   11  180   13  84.9 -99.9 1016.3 -9.9 -9.999 -99.9 -99.99 -9.99
2019/05/19 13:00 EDT  -99.99 -99.99    8  188   12  84.7 -99.9 1016.3 -9.9 -9.999 -99.9 -99.99 -9.99
2019/05/19 13:06 EDT  -99.99 -99.99    5  226   12  83.1 -99.9 1016.3 -9.9 -9.999 -99.9 -99.99 -9.99
2019/05/19 13:12 EDT  -99.99 -99.99    7  242    9  83.3 -99.9 1016.2 -9.9 -9.999 -99.9 -99.99 -9.99
2019/05/19 13:18 EDT  -99.99 -99.99    6  239    9  84.0 -99.9 1016.2 -9.9 -9.999 -99.9 -99.99 -9.99
2019/05/19 13:24 EDT  -99.99 -99.99    5  254    7  83.3 -99.9 1016.3 -9.9 -9.999 -99.9 -99.99 -9.99
2019/05/19 13:30 EDT  -99.99 -99.99    5  261    6  83.7 -99.9 1016.3 -9.9 -9.999 -99.9 -99.99 -9.99
2019/05/19 13:36 EDT  -99.99 -99.99    5  286    6  83.3 -99.9 1016.3 -9.9 -9.999 -99.9 -99.99 -9.99
2019/05/19 13:42 EDT  -99.99 -99.99    4  327    5  80.6 -99.9 1016.2 -9.9 -9.999 -99.9 -99.99 -9.99
2019/05/19 13:48 EDT  -99.99 -99.99    5    1    6  78.3 -99.9 1016.2 -9.9 -9.999 -99.9 -99.99 -9.99
2019/05/19 13:54 EDT  -99.99 -99.99    4  360    5  80.2 -99.9 1016.2 -9.9 -9.999 -99.9 -99.99 -9.99
2019/05/19 14:00 EDT  -99.99 -99.99    4  339    5  81.9 -99.9 1016.2 -9.9 -9.999 -99.9 -99.99 -9.99
2019/05/19 14:06 EDT  -99.99 -99.99    5   12    6  79.7 -99.9 1016.1 -9.9 -9.999 -99.9 -99.99 -9.99
2019/05/19 14:12 EDT  -99.99 -99.99    4  358    6  81.7 -99.9 1016.1 -9.9 -9.999 -99.9 -99.99 -9.99
2019/05/19 14:18 EDT  -99.99 -99.99    3   23    4  80.4 -99.9 1016.0 -9.9 -9.999 -99.9 -99.99 -9.99
2019/05/19 14:24 EDT  -99.99 -99.99    4   15    4  80.4 -99.9 1016.0 -9.9 -9.999 -99.9 -99.99 -9.99
2019/05/19 14:30 EDT  -99.99 -99.99    3  348    4  82.6 -99.9 1015.9 -9.9 -9.999 -99.9 -99.99 -9.99
2019/05/19 14:36 EDT  -99.99 -99.99    4   14    5  79.7 -99.9 1015.9 -9.9 -9.999 -99.9 -99.99 -9.99
2019/05/19 14:42 EDT  -99.99 -99.99    5   43    5  81.0 -99.9 1015.8 -9.9 -9.999 -99.9 -99.99 -9.99
2019/05/19 14:48 EDT  -99.99 -99.99    3   20    5  80.4 -99.9 1015.7 -9.9 -9.999 -99.9 -99.99 -9.99
2019/05/19 14:54 EDT  -99.99 -99.99    4    4    5  82.2 -99.9 1015.7 -9.9 -9.999 -99.9 -99.99 -9.99
2019/05/19 15:00 EDT  -99.99 -99.99    4  348    4  82.8 -99.9 1015.6 -9.9 -9.999 -99.9 -99.99 -9.99
2019/05/19 15:06 EDT  -99.99 -99.99    6   54    6  79.0 -99.9 1015.5 -9.9 -9.999 -99.9 -99.99 -9.99
2019/05/19 15:12 EDT  -99.99 -99.99    3   38    5  81.9 -99.9 1015.5 -9.9 -9.999 -99.9 -99.99 -9.99
2019/05/19 15:18 EDT  -99.99 -99.99    3  350    4  83.1 -99.9 1015.4 -9.9 -9.999 -99.9 -99.99 -9.99
2019/05/19 15:24 EDT  -99.99 -99.99    4   56    5  79.2 -99.9 1015.4 -9.9 -9.999 -99.9 -99.99 -9.99
2019/05/19 15:30 EDT  -99.99 -99.99    0  347    4  83.3 -99.9 1015.3 -9.9 -9.999 -99.9 -99.99 -9.99
2019/05/19 15:36 EDT  -99.99 -99.99    1  254    2  84.4 -99.9 1015.3 -9.9 -9.999 -99.9 -99.99 -9.99
2019/05/19 15:42 EDT  -99.99 -99.99    4   47    5  79.7 -99.9 1015.1 -9.9 -9.999 -99.9 -99.99 -9.99
2019/05/19 15:48 EDT  -99.99 -99.99    4   55    5  80.4 -99.9 1015.0 -9.9 -9.999 -99.9 -99.99 -9.99
2019/05/19 15:54 EDT  -99.99 -99.99    2   93    5  83.1 -99.9 1014.9 -9.9 -9.999 -99.9 -99.99 -9.99
2019/05/19 16:00 EDT  -99.99 -99.99    0   92    3  84.6 -99.9 1014.8 -9.9 -9.999 -99.9 -99.99 -9.99
2019/05/19 16:06 EDT  -99.99 -99.99    2  132    4  83.1 -99.9 1014.7 -9.9 -9.999 -99.9 -99.99 -9.99
2019/05/19 16:12 EDT  -99.99 -99.99    1   18    6  83.1 -99.9 1014.7 -9.9 -9.999 -99.9 -99.99 -9.99
2019/05/19 16:18 EDT  -99.99 -99.99    1    5    2  83.8 -99.9 1014.6 -9.9 -9.999 -99.9 -99.99 -9.99
2019/05/19 16:24 EDT  -99.99 -99.99    7  188   12  85.6 -99.9 1014.4 -9.9 -9.999 -99.9 -99.99 -9.99
2019/05/19 16:30 EDT  -99.99 -99.99   12  183   15  88.3 -99.9 1014.3 -9.9 -9.999 -99.9 -99.99 -9.99
2019/05/19 16:36 EDT  -99.99 -99.99   13  185   15  88.2 -99.9 1014.2 -9.9 -9.999 -99.9 -99.99 -9.99
2019/05/19 16:42 EDT  -99.99 -99.99   14  187   17  87.8 -99.9 1014.2 -9.9 -9.999 -99.9 -99.99 -9.99
2019/05/19 16:48 EDT  -99.99 -99.99   13  193   15  88.5 -99.9 1014.2 -9.9 -9.999 -99.9 -99.99 -9.99
2019/05/19 16:54 EDT  -99.99 -99.99   13  188   15  88.7 -99.9 1014.1 -9.9 -9.999 -99.9 -99.99 -9.99
2019/05/19 17:00 EDT  -99.99 -99.99   13  193   15  88.3 -99.9 1014.1 -9.9 -9.999 -99.9 -99.99 -9.99
2019/05/19 17:06 EDT  -99.99 -99.99   11  188   15  88.2 -99.9 1014.0 -9.9 -9.999 -99.9 -99.99 -9.99
2019/05/19 17:12 EDT  -99.99 -99.99   14  187   17  88.9 -99.9 1013.9 -9.9 -9.999 -99.9 -99.99 -9.99
2019/05/19 17:18 EDT  -99.99 -99.99   15  197   17  88.9 -99.9 1013.9 -9.9 -9.999 -99.9 -99.99 -9.99
2019/05/19 17:24 EDT  -99.99 -99.99   11  194   15  87.8 -99.9 1013.9 -9.9 -9.999 -99.9 -99.99 -9.99
2019/05/19 17:30 EDT  -99.99 -99.99   14  204   16  88.7 -99.9 1013.9 -9.9 -9.999 -99.9 -99.99 -9.99
2019/05/19 17:36 EDT  -99.99 -99.99   14  195   16  89.1 -99.9 1013.8 -9.9 -9.999 -99.9 -99.99 -9.99
2019/05/19 17:42 EDT  -99.99 -99.99   12  198   18  88.5 -99.9 1013.8 -9.9 -9.999 -99.9 -99.99 -9.99
2019/05/19 17:48 EDT  -99.99 -99.99   12  203   16  88.3 -99.9 1013.8 -9.9 -9.999 -99.9 -99.99 -9.99
2019/05/19 17:54 EDT  -99.99 -99.99   14  211   16  88.2 -99.9 1013.8 -9.9 -9.999 -99.9 -99.99 -9.99
2019/05/19 18:00 EDT  -99.99 -99.99   13  210   17  88.5 -99.9 1013.7 -9.9 -9.999 -99.9 -99.99 -9.99
2019/05/19 18:06 EDT  -99.99 -99.99   16  209   18  88.9 -99.9 1013.7 -9.9 -9.999 -99.9 -99.99 -9.99
2019/05/19 18:12 EDT  -99.99 -99.99   14  206   17  88.7 -99.9 1013.7 -9.9 -9.999 -99.9 -99.99 -9.99
2019/05/19 18:18 EDT  -99.99 -99.99   14  204   17  89.1 -99.9 1013.7 -9.9 -9.999 -99.9 -99.99 -9.99
2019/05/19 18:24 EDT  -99.99 -99.99   13  208   15  88.5 -99.9 1013.6 -9.9 -9.999 -99.9 -99.99 -9.99
2019/05/19 18:30 EDT  -99.99 -99.99   13  207   15  88.0 -99.9 1013.6 -9.9 -9.999 -99.9 -99.99 -9.99
2019/05/19 18:36 EDT  -99.99 -99.99   12  203   14  87.8 -99.9 1013.6 -9.9 -9.999 -99.9 -99.99 -9.99
2019/05/19 18:42 EDT  -99.99 -99.99   11  202   14  88.2 -99.9 1013.6 -9.9 -9.999 -99.9 -99.99 -9.99
2019/05/19 18:48 EDT  -99.99 -99.99   12  194   16  88.2 -99.9 1013.5 -9.9 -9.999 -99.9 -99.99 -9.99
2019/05/19 18:54 EDT  -99.99 -99.99   14  201   16  88.3 -99.9 1013.6 -9.9 -9.999 -99.9 -99.99 -9.99
2019/05/19 19:00 EDT  -99.99 -99.99   14  203   16  88.2 -99.9 1013.5 -9.9 -9.999 -99.9 -99.99 -9.99
2019/05/19 19:06 EDT  -99.99 -99.99   12  199   15  88.3 -99.9 1013.6 -9.9 -9.999 -99.9 -99.99 -9.99
2019/05/19 19:12 EDT  -99.99 -99.99   12  200   14  88.3 -99.9 1013.6 -9.9 -9.999 -99.9 -99.99 -9.99
2019/05/19 19:18 EDT  -99.99 -99.99   11  204   13  88.0 -99.9 1013.7 -9.9 -9.999 -99.9 -99.99 -9.99
2019/05/19 19:24 EDT  -99.99 -99.99   13  202   16  88.0 -99.9 1013.7 -9.9 -9.999 -99.9 -99.99 -9.99
2019/05/19 19:30 EDT  -99.99 -99.99   11  199   13  87.8 -99.9 1013.7 -9.9 -9.999 -99.9 -99.99 -9.99
2019/05/19 19:36 EDT  -99.99 -99.99   11  200   12  87.4 -99.9 1013.7 -9.9 -9.999 -99.9 -99.99 -9.99
2019/05/19 19:42 EDT  -99.99 -99.99   12  194   14  87.4 -99.9 1013.6 -9.9 -9.999 -99.9 -99.99 -9.99
2019/05/19 19:48 EDT  -99.99 -99.99   13  194   14  87.3 -99.9 1013.6 -9.9 -9.999 -99.9 -99.99 -9.99
2019/05/19 19:54 EDT  -99.99 -99.99   11  193   14  86.9 -99.9 1013.6 -9.9 -9.999 -99.9 -99.99 -9.99
2019/05/19 20:00 EDT  -99.99 -99.99   12  195   13  87.1 -99.9 1013.6 -9.9 -9.999 -99.9 -99.99 -9.99
2019/05/19 20:06 EDT  -99.99 -99.99   11  197   14  86.7 -99.9 1013.6 -9.9 -9.999 -99.9 -99.99 -9.99
2019/05/19 20:12 EDT  -99.99 -99.99   12  192   14  86.9 -99.9 1013.6 -9.9 -9.999 -99.9 -99.99 -9.99
2019/05/19 20:18 EDT  -99.99 -99.99   11  191   13  86.4 -99.9 1013.6 -9.9 -9.999 -99.9 -99.99 -9.99
2019/05/19 20:24 EDT  -99.99 -99.99   11  190   13  86.2 -99.9 1013.7 -9.9 -9.999 -99.9 -99.99 -9.99
2019/05/19 20:30 EDT  -99.99 -99.99    9  181   12  85.6 -99.9 1013.7 -9.9 -9.999 -99.9 -99.99 -9.99
2019/05/19 20:36 EDT  -99.99 -99.99   10  181   11  85.1 -99.9 1013.7 -9.9 -9.999 -99.9 -99.99 -9.99
2019/05/19 20:42 EDT  -99.99 -99.99   11  161   12  85.5 -99.9 1013.8 -9.9 -9.999 -99.9 -99.99 -9.99
2019/05/19 20:48 EDT  -99.99 -99.99   11  163   12  84.4 -99.9 1013.8 -9.9 -9.999 -99.9 -99.99 -9.99
2019/05/19 20:54 EDT  -99.99 -99.99   13  173   14  83.8 -99.9 1013.9 -9.9 -9.999 -99.9 -99.99 -9.99
2019/05/19 21:00 EDT  -99.99 -99.99   16  179   18  83.8 -99.9 1013.8 -9.9 -9.999 -99.9 -99.99 -9.99
2019/05/19 21:06 EDT  -99.99 -99.99   16  179   20  83.7 -99.9 1013.9 -9.9 -9.999 -99.9 -99.99 -9.99
2019/05/19 21:12 EDT  -99.99 -99.99   18  179   20  83.7 -99.9 1013.9 -9.9 -9.999 -99.9 -99.99 -9.99
2019/05/19 21:18 EDT  -99.99 -99.99   17  183   20  83.1 -99.9 1014.0 -9.9 -9.999 -99.9 -99.99 -9.99
2019/05/19 21:24 EDT  -99.99 -99.99   16  183   19  82.8 -99.9 1014.1 -9.9 -9.999 -99.9 -99.99 -9.99
2019/05/19 21:30 EDT  -99.99 -99.99   16  181   19  82.6 -99.9 1014.2 -9.9 -9.999 -99.9 -99.99 -9.99
2019/05/19 21:36 EDT  -99.99 -99.99   17  181   21  82.6 -99.9 1014.2 -9.9 -9.999 -99.9 -99.99 -9.99
2019/05/19 21:42 EDT  -99.99 -99.99   17  179   20  82.2 -99.9 1014.2 -9.9 -9.999 -99.9 -99.99 -9.99
2019/05/19 21:48 EDT  -99.99 -99.99   16  180   19  82.0 -99.9 1014.3 -9.9 -9.999 -99.9 -99.99 -9.99
2019/05/19 21:54 EDT  -99.99 -99.99   17  184   18  82.2 -99.9 1014.3 -9.9 -9.999 -99.9 -99.99 -9.99
2019/05/19 22:00 EDT  -99.99 -99.99   17  182   20  81.9 -99.9 1014.3 -9.9 -9.999 -99.9 -99.99 -9.99
2019/05/19 22:06 EDT  -99.99 -99.99   15  185   18  81.3 -99.9 1014.5 -9.9 -9.999 -99.9 -99.99 -9.99
2019/05/19 22:12 EDT  -99.99 -99.99   17  188   20  81.9 -99.9 1014.5 -9.9 -9.999 -99.9 -99.99 -9.99
2019/05/19 22:18 EDT  -99.99 -99.99   16  191   21  81.1 -99.9 1014.6 -9.9 -9.999 -99.9 -99.99 -9.99
2019/05/19 22:24 EDT  -99.99 -99.99   18  189   21  81.1 -99.9 1014.7 -9.9 -9.999 -99.9 -99.99 -9.99
2019/05/19 22:30 EDT  -99.99 -99.99   17  190   21  81.1 -99.9 1014.7 -9.9 -9.999 -99.9 -99.99 -9.99
2019/05/19 22:36 EDT  -99.99 -99.99   15  190   19  81.0 -99.9 1014.8 -9.9 -9.999 -99.9 -99.99 -9.99
2019/05/19 22:42 EDT  -99.99 -99.99   17  189   19  80.8 -99.9 1014.8 -9.9 -9.999 -99.9 -99.99 -9.99
2019/05/19 22:48 EDT  -99.99 -99.99   17  187   19  80.6 -99.9 1014.8 -9.9 -9.999 -99.9 -99.99 -9.99
2019/05/19 22:54 EDT  -99.99 -99.99   17  188   20  80.4 -99.9 1014.7 -9.9 -9.999 -99.9 -99.99 -9.99
2019/05/19 23:00 EDT  -99.99 -99.99   17  185   22  80.2 -99.9 1014.6 -9.9 -9.999 -99.9 -99.99 -9.99
2019/05/19 23:06 EDT  -99.99 -99.99   17  184   21  80.2 -99.9 1014.6 -9.9 -9.999 -99.9 -99.99 -9.99
2019/05/19 23:12 EDT  -99.99 -99.99   19  188   21  80.1 -99.9 1014.6 -9.9 -9.999 -99.9 -99.99 -9.99
2019/05/19 23:18 EDT  -99.99 -99.99   16  191   20  79.5 -99.9 1014.6 -9.9 -9.999 -99.9 -99.99 -9.99
2019/05/19 23:24 EDT  -99.99 -99.99   18  194   21  80.1 -99.9 1014.7 -9.9 -9.999 -99.9 -99.99 -9.99
2019/05/19 23:30 EDT  -99.99 -99.99   16  193   22  79.5 -99.9 1014.7 -9.9 -9.999 -99.9 -99.99 -9.99
2019/05/19 23:36 EDT  -99.99 -99.99   18  191   21  79.3 -99.9 1014.6 -9.9 -9.999 -99.9 -99.99 -9.99
2019/05/19 23:42 EDT  -99.99 -99.99   19  189   21  79.3 -99.9 1014.7 -9.9 -9.999 -99.9 -99.99 -9.99
2019/05/19 23:48 EDT  -99.99 -99.99   17  193   21  79.0 -99.9 1014.8 -9.9 -9.999 -99.9 -99.99 -9.99
2019/05/19 23:54 EDT  -99.99 -99.99   17  196   21  79.0 -99.9 1014.8 -9.9 -9.999 -99.9 -99.99 -9.99
2019/05/20 00:00 EDT  -99.99 -99.99   18  196   22  78.6 -99.9 1014.7 -9.9 -9.999 -99.9 -99.99 -9.99
2019/05/20 00:06 EDT  -99.99 -99.99   18  195   20  78.6 -99.9 1014.7 -9.9 -9.999 -99.9 -99.99 -9.99
2019/05/20 00:12 EDT  -99.99 -99.99   18  197   21  78.6 -99.9 1014.7 -9.9 -9.999 -99.9 -99.99 -9.99
2019/05/20 00:18 EDT  -99.99 -99.99   17  197   19  78.4 -99.9 1014.8 -9.9 -9.999 -99.9 -99.99 -9.99
2019/05/20 00:24 EDT  -99.99 -99.99   16  196   20  78.1 -99.9 1014.8 -9.9 -9.999 -99.9 -99.99 -9.99
2019/05/20 00:30 EDT  -99.99 -99.99   17  195   19  77.9 -99.9 1014.7 -9.9 -9.999 -99.9 -99.99 -9.99
2019/05/20 00:36 EDT  -99.99 -99.99   16  194   20  77.5 -99.9 1014.7 -9.9 -9.999 -99.9 -99.99 -9.99
2019/05/20 00:42 EDT  -99.99 -99.99   18  194   20  77.7 -99.9 1014.6 -9.9 -9.999 -99.9 -99.99 -9.99
2019/05/20 00:48 EDT  -99.99 -99.99   16  197   20  77.4 -99.9 1014.7 -9.9 -9.999 -99.9 -99.99 -9.99
2019/05/20 00:54 EDT  -99.99 -99.99   15  199   18  77.0 -99.9 1014.8 -9.9 -9.999 -99.9 -99.99 -9.99
2019/05/20 01:00 EDT  -99.99 -99.99   14  201   17  77.0 -99.9 1014.9 -9.9 -9.999 -99.9 -99.99 -9.99
2019/05/20 01:06 EDT  -99.99 -99.99   16  202   19  77.0 -99.9 1014.8 -9.9 -9.999 -99.9 -99.99 -9.99
2019/05/20 01:12 EDT  -99.99 -99.99   16  205   18  77.0 -99.9 1014.8 -9.9 -9.999 -99.9 -99.99 -9.99
2019/05/20 01:18 EDT  -99.99 -99.99   16  204   18  76.8 -99.9 1014.7 -9.9 -9.999 -99.9 -99.99 -9.99
2019/05/20 01:24 EDT  -99.99 -99.99   15  204   19  76.5 -99.9 1014.7 -9.9 -9.999 -99.9 -99.99 -9.99
2019/05/20 01:30 EDT  -99.99 -99.99   16  203   19  76.5 -99.9 1014.7 -9.9 -9.999 -99.9 -99.99 -9.99
2019/05/20 01:36 EDT  -99.99 -99.99   15  199   17  76.3 -99.9 1014.8 -9.9 -9.999 -99.9 -99.99 -9.99
2019/05/20 01:42 EDT  -99.99 -99.99   15  201   18  76.1 -99.9 1014.9 -9.9 -9.999 -99.9 -99.99 -9.99
2019/05/20 01:48 EDT  -99.99 -99.99   16  202   19  76.1 -99.9 1014.9 -9.9 -9.999 -99.9 -99.99 -9.99
2019/05/20 01:54 EDT  -99.99 -99.99   14  198   16  75.7 -99.9 1014.9 -9.9 -9.999 -99.9 -99.99 -9.99
2019/05/20 02:00 EDT  -99.99 -99.99   14  202   17  75.6 -99.9 1014.8 -9.9 -9.999 -99.9 -99.99 -9.99
2019/05/20 02:06 EDT  -99.99 -99.99   14  198   18  75.2 -99.9 1014.8 -9.9 -9.999 -99.9 -99.99 -9.99
2019/05/20 02:12 EDT  -99.99 -99.99   15  193   18  75.4 -99.9 1014.7 -9.9 -9.999 -99.9 -99.99 -9.99
2019/05/20 02:18 EDT  -99.99 -99.99   14  196   17  75.0 -99.9 1014.7 -9.9 -9.999 -99.9 -99.99 -9.99
2019/05/20 02:24 EDT  -99.99 -99.99   13  199   17  74.8 -99.9 1014.7 -9.9 -9.999 -99.9 -99.99 -9.99
2019/05/20 02:30 EDT  -99.99 -99.99   15  197   19  74.8 -99.9 1014.7 -9.9 -9.999 -99.9 -99.99 -9.99
2019/05/20 02:36 EDT  -99.99 -99.99   15  197   17  74.7 -99.9 1014.6 -9.9 -9.999 -99.9 -99.99 -9.99
2019/05/20 02:42 EDT  -99.99 -99.99   16  195   19  74.7 -99.9 1014.5 -9.9 -9.999 -99.9 -99.99 -9.99
2019/05/20 02:48 EDT  -99.99 -99.99   16  194   19  74.5 -99.9 1014.5 -9.9 -9.999 -99.9 -99.99 -9.99
2019/05/20 02:54 EDT  -99.99 -99.99   15  199   19  74.5 -99.9 1014.5 -9.9 -9.999 -99.9 -99.99 -9.99
2019/05/20 03:00 EDT  -99.99 -99.99   16  200   20  74.5 -99.9 1014.4 -9.9 -9.999 -99.9 -99.99 -9.99
2019/05/20 03:06 EDT  -99.99 -99.99   16  197   19  74.3 -99.9 1014.4 -9.9 -9.999 -99.9 -99.99 -9.99
2019/05/20 03:12 EDT  -99.99 -99.99   16  201   19  74.3 -99.9 1014.4 -9.9 -9.999 -99.9 -99.99 -9.99
2019/05/20 03:18 EDT  -99.99 -99.99   16  202   19  74.1 -99.9 1014.4 -9.9 -9.999 -99.9 -99.99 -9.99
2019/05/20 03:24 EDT  -99.99 -99.99   18  203   19  74.1 -99.9 1014.4 -9.9 -9.999 -99.9 -99.99 -9.99
2019/05/20 03:30 EDT  -99.99 -99.99   17  204   21  73.8 -99.9 1014.4 -9.9 -9.999 -99.9 -99.99 -9.99
2019/05/20 03:36 EDT  -99.99 -99.99   18  207   22  73.8 -99.9 1014.5 -9.9 -9.999 -99.9 -99.99 -9.99
2019/05/20 03:42 EDT  -99.99 -99.99   18  206   23  73.6 -99.9 1014.6 -9.9 -9.999 -99.9 -99.99 -9.99
2019/05/20 03:48 EDT  -99.99 -99.99   18  208   21  73.6 -99.9 1014.5 -9.9 -9.999 -99.9 -99.99 -9.99
2019/05/20 03:54 EDT  -99.99 -99.99   16  209   21  73.2 -99.9 1014.6 -9.9 -9.999 -99.9 -99.99 -9.99
2019/05/20 04:00 EDT  -99.99 -99.99   17  210   20  73.2 -99.9 1014.5 -9.9 -9.999 -99.9 -99.99 -9.99
2019/05/20 04:06 EDT  -99.99 -99.99   17  210   20  73.0 -99.9 1014.4 -9.9 -9.999 -99.9 -99.99 -9.99
2019/05/20 04:12 EDT  -99.99 -99.99   18  212   20  73.0 -99.9 1014.4 -9.9 -9.999 -99.9 -99.99 -9.99
2019/05/20 04:18 EDT  -99.99 -99.99   17  212   19  72.9 -99.9 1014.4 -9.9 -9.999 -99.9 -99.99 -9.99
2019/05/20 04:24 EDT  -99.99 -99.99   18  215   20  72.7 -99.9 1014.4 -9.9 -9.999 -99.9 -99.99 -9.99
2019/05/20 04:30 EDT  -99.99 -99.99   17  214   20  72.5 -99.9 1014.3 -9.9 -9.999 -99.9 -99.99 -9.99
2019/05/20 04:36 EDT  -99.99 -99.99   17  212   19  72.5 -99.9 1014.2 -9.9 -9.999 -99.9 -99.99 -9.99
2019/05/20 04:42 EDT  -99.99 -99.99   18  214   21  72.5 -99.9 1014.2 -9.9 -9.999 -99.9 -99.99 -9.99
2019/05/20 04:48 EDT  -99.99 -99.99   19  215   22  72.3 -99.9 1014.2 -9.9 -9.999 -99.9 -99.99 -9.99
2019/05/20 04:54 EDT  -99.99 -99.99   17  218   20  72.3 -99.9 1014.2 -9.9 -9.999 -99.9 -99.99 -9.99
2019/05/20 05:00 EDT  -99.99 -99.99   17  215   20  72.3 -99.9 1014.2 -9.9 -9.999 -99.9 -99.99 -9.99
2019/05/20 05:06 EDT  -99.99 -99.99   18  218   20  72.1 -99.9 1014.2 -9.9 -9.999 -99.9 -99.99 -9.99
2019/05/20 05:12 EDT  -99.99 -99.99   17  217   21  71.8 -99.9 1014.2 -9.9 -9.999 -99.9 -99.99 -9.99
2019/05/20 05:18 EDT  -99.99 -99.99   19  215   21  72.0 -99.9 1014.1 -9.9 -9.999 -99.9 -99.99 -9.99
2019/05/20 05:24 EDT  -99.99 -99.99   17  215   21  71.8 -99.9 1014.2 -9.9 -9.999 -99.9 -99.99 -9.99
2019/05/20 05:30 EDT  -99.99 -99.99   17  215   21  71.8 -99.9 1014.2 -9.9 -9.999 -99.9 -99.99 -9.99
2019/05/20 05:36 EDT  -99.99 -99.99   17  216   20  71.6 -99.9 1014.3 -9.9 -9.999 -99.9 -99.99 -9.99
2019/05/20 05:42 EDT  -99.99 -99.99   17  216   20  71.6 -99.9 1014.3 -9.9 -9.999 -99.9 -99.99 -9.99
2019/05/20 05:48 EDT  -99.99 -99.99   17  218   20  71.6 -99.9 1014.3 -9.9 -9.999 -99.9 -99.99 -9.99
2019/05/20 05:54 EDT  -99.99 -99.99   17  218   19  71.4 -99.9 1014.4 -9.9 -9.999 -99.9 -99.99 -9.99
2019/05/20 06:00 EDT  -99.99 -99.99   16  217   20  71.4 -99.9 1014.5 -9.9 -9.999 -99.9 -99.99 -9.99
2019/05/20 06:06 EDT  -99.99 -99.99   15  218   17  71.4 -99.9 1014.5 -9.9 -9.999 -99.9 -99.99 -9.99
2019/05/20 06:12 EDT  -99.99 -99.99   14  216   17  71.2 -99.9 1014.4 -9.9 -9.999 -99.9 -99.99 -9.99
2019/05/20 06:18 EDT  -99.99 -99.99   14  217   17  71.2 -99.9 1014.5 -9.9 -9.999 -99.9 -99.99 -9.99
2019/05/20 06:24 EDT  -99.99 -99.99   14  214   16  71.2 -99.9 1014.6 -9.9 -9.999 -99.9 -99.99 -9.99
2019/05/20 06:30 EDT  -99.99 -99.99   13  218   15  71.2 -99.9 1014.6 -9.9 -9.999 -99.9 -99.99 -9.99
2019/05/20 06:36 EDT  -99.99 -99.99   13  218   15  71.2 -99.9 1014.6 -9.9 -9.999 -99.9 -99.99 -9.99
2019/05/20 06:42 EDT  -99.99 -99.99   14  218   15  71.4 -99.9 1014.6 -9.9 -9.999 -99.9 -99.99 -9.99
2019/05/20 06:48 EDT  -99.99 -99.99   14  212   16  71.4 -99.9 1014.6 -9.9 -9.999 -99.9 -99.99 -9.99
2019/05/20 06:54 EDT  -99.99 -99.99   13  213   16  71.6 -99.9 1014.6 -9.9 -9.999 -99.9 -99.99 -9.99
2019/05/20 07:00 EDT  -99.99 -99.99   14  218   15  71.6 -99.9 1014.7 -9.9 -9.999 -99.9 -99.99 -9.99
2019/05/20 07:06 EDT  -99.99 -99.99   13  214   15  71.6 -99.9 1014.6 -9.9 -9.999 -99.9 -99.99 -9.99
2019/05/20 07:12 EDT  -99.99 -99.99 -999 -999 -999 -99.9 -99.9 -999.9 -9.9 -9.999 -99.9 -99.99 -9.99
2019/05/20 07:18 EDT  -99.99 -99.99 -999 -999 -999 -99.9 -99.9 -999.9 -9.9 -9.999 -99.9 -99.99 -9.99
2019/05/20 07:24 EDT  -99.99 -99.99 -999 -999 -999 -99.9 -99.9 -999.9 -9.9 -9.999 -99.9 -99.99 -9.99

Revised: 08/08/2018
NOAA / National Ocean Service
Web site owner: Center for Operational Oceanographic Products and Services